<?xml version="1.0" encoding="UTF-8" standalone="no" ?>
<gpx xmlns="http://www.topografix.com/GPX/1/1" xmlns:xsi="http://www.w3.org/2001/XMLSchema-instance" xsi:schemaLocation="http://www.topografix.com/GPX/1/1 http://www.topografix.com/GPX/1/1/gpx.xsd" version="1.1" creator="VisuGPX - https://www.visugpx.com">
  <metadata>
    <name>Visite Arles</name>
    <desc><![CDATA[Grenam13
Visite Arles
moitié du parcours enregistré...]]></desc>
  </metadata>
  <trk>
    <name><![CDATA[Visite Arles_1]]></name>
    <cmt><![CDATA[grenam13]]></cmt>
    <trkseg>
      <trkpt lat="43.68164" lon="4.63053">
        <ele>9</ele>
        <time>2013-05-10T08:55:04Z</time>
      </trkpt>
      <trkpt lat="43.68185" lon="4.63029">
        <ele>11</ele>
        <time>2013-05-10T08:55:43Z</time>
      </trkpt>
      <trkpt lat="43.68193" lon="4.63025">
        <ele>10</ele>
        <time>2013-05-10T08:55:59Z</time>
      </trkpt>
      <trkpt lat="43.68203" lon="4.63026">
        <ele>9</ele>
        <time>2013-05-10T08:56:09Z</time>
      </trkpt>
      <trkpt lat="43.68203" lon="4.63025">
        <ele>8</ele>
        <time>2013-05-10T08:56:30Z</time>
      </trkpt>
      <trkpt lat="43.68214" lon="4.63023">
        <ele>8</ele>
        <time>2013-05-10T08:56:41Z</time>
      </trkpt>
      <trkpt lat="43.68224" lon="4.63022">
        <ele>8</ele>
        <time>2013-05-10T08:56:51Z</time>
      </trkpt>
      <trkpt lat="43.68236" lon="4.6302">
        <ele>7</ele>
        <time>2013-05-10T08:57:02Z</time>
      </trkpt>
      <trkpt lat="43.68246" lon="4.63019">
        <ele>7</ele>
        <time>2013-05-10T08:57:12Z</time>
      </trkpt>
      <trkpt lat="43.68256" lon="4.63019">
        <ele>7</ele>
        <time>2013-05-10T08:57:22Z</time>
      </trkpt>
      <trkpt lat="43.68267" lon="4.63018">
        <ele>7</ele>
        <time>2013-05-10T08:57:33Z</time>
      </trkpt>
      <trkpt lat="43.68277" lon="4.63018">
        <ele>7</ele>
        <time>2013-05-10T08:57:43Z</time>
      </trkpt>
      <trkpt lat="43.68284" lon="4.63015">
        <ele>7</ele>
        <time>2013-05-10T08:57:53Z</time>
      </trkpt>
      <trkpt lat="43.68282" lon="4.63017">
        <ele>5</ele>
        <time>2013-05-10T08:59:06Z</time>
      </trkpt>
      <trkpt lat="43.68282" lon="4.63012">
        <ele>9</ele>
        <time>2013-05-10T08:59:35Z</time>
      </trkpt>
      <trkpt lat="43.6829" lon="4.63012">
        <ele>14</ele>
        <time>2013-05-10T09:00:07Z</time>
      </trkpt>
      <trkpt lat="43.68289" lon="4.63014">
        <ele>16</ele>
        <time>2013-05-10T09:00:21Z</time>
      </trkpt>
      <trkpt lat="43.68297" lon="4.63009">
        <ele>10</ele>
        <time>2013-05-10T09:00:31Z</time>
      </trkpt>
      <trkpt lat="43.68291" lon="4.63012">
        <ele>5</ele>
        <time>2013-05-10T09:00:41Z</time>
      </trkpt>
      <trkpt lat="43.68271" lon="4.63039">
        <ele>15</ele>
        <time>2013-05-10T09:01:04Z</time>
      </trkpt>
      <trkpt lat="43.68307" lon="4.62999">
        <ele>14</ele>
        <time>2013-05-10T09:01:29Z</time>
      </trkpt>
      <trkpt lat="43.68295" lon="4.6301">
        <ele>14</ele>
        <time>2013-05-10T09:01:39Z</time>
      </trkpt>
      <trkpt lat="43.68293" lon="4.6301">
        <ele>11</ele>
        <time>2013-05-10T09:01:55Z</time>
      </trkpt>
      <trkpt lat="43.68292" lon="4.63011">
        <ele>11</ele>
        <time>2013-05-10T09:02:05Z</time>
      </trkpt>
      <trkpt lat="43.6829" lon="4.6301">
        <ele>9</ele>
        <time>2013-05-10T09:02:38Z</time>
      </trkpt>
      <trkpt lat="43.68282" lon="4.63017">
        <ele>9</ele>
        <time>2013-05-10T09:02:57Z</time>
      </trkpt>
      <trkpt lat="43.68285" lon="4.63017">
        <ele>9</ele>
        <time>2013-05-10T09:03:13Z</time>
      </trkpt>
      <trkpt lat="43.6828" lon="4.63017">
        <ele>9</ele>
        <time>2013-05-10T09:03:24Z</time>
      </trkpt>
      <trkpt lat="43.68274" lon="4.63019">
        <ele>9</ele>
        <time>2013-05-10T09:03:37Z</time>
      </trkpt>
      <trkpt lat="43.68267" lon="4.63019">
        <ele>9</ele>
        <time>2013-05-10T09:03:47Z</time>
      </trkpt>
      <trkpt lat="43.68259" lon="4.6302">
        <ele>9</ele>
        <time>2013-05-10T09:03:57Z</time>
      </trkpt>
      <trkpt lat="43.68253" lon="4.63019">
        <ele>9</ele>
        <time>2013-05-10T09:04:07Z</time>
      </trkpt>
      <trkpt lat="43.68244" lon="4.63022">
        <ele>9</ele>
        <time>2013-05-10T09:04:18Z</time>
      </trkpt>
      <trkpt lat="43.68235" lon="4.63023">
        <ele>9</ele>
        <time>2013-05-10T09:04:28Z</time>
      </trkpt>
      <trkpt lat="43.68226" lon="4.63024">
        <ele>9</ele>
        <time>2013-05-10T09:04:38Z</time>
      </trkpt>
      <trkpt lat="43.68218" lon="4.63026">
        <ele>9</ele>
        <time>2013-05-10T09:04:48Z</time>
      </trkpt>
      <trkpt lat="43.68208" lon="4.63028">
        <ele>8</ele>
        <time>2013-05-10T09:04:58Z</time>
      </trkpt>
      <trkpt lat="43.68199" lon="4.6303">
        <ele>8</ele>
        <time>2013-05-10T09:05:08Z</time>
      </trkpt>
      <trkpt lat="43.6819" lon="4.6303">
        <ele>8</ele>
        <time>2013-05-10T09:05:18Z</time>
      </trkpt>
      <trkpt lat="43.6818" lon="4.63031">
        <ele>8</ele>
        <time>2013-05-10T09:05:28Z</time>
      </trkpt>
      <trkpt lat="43.68172" lon="4.63032">
        <ele>8</ele>
        <time>2013-05-10T09:05:38Z</time>
      </trkpt>
      <trkpt lat="43.68165" lon="4.63039">
        <ele>8</ele>
        <time>2013-05-10T09:05:49Z</time>
      </trkpt>
      <trkpt lat="43.68161" lon="4.63047">
        <ele>8</ele>
        <time>2013-05-10T09:06:00Z</time>
      </trkpt>
      <trkpt lat="43.68155" lon="4.63055">
        <ele>8</ele>
        <time>2013-05-10T09:06:11Z</time>
      </trkpt>
      <trkpt lat="43.68154" lon="4.63062">
        <ele>8</ele>
        <time>2013-05-10T09:06:21Z</time>
      </trkpt>
      <trkpt lat="43.68154" lon="4.63073">
        <ele>8</ele>
        <time>2013-05-10T09:06:31Z</time>
      </trkpt>
      <trkpt lat="43.68153" lon="4.63086">
        <ele>7</ele>
        <time>2013-05-10T09:06:41Z</time>
      </trkpt>
      <trkpt lat="43.68153" lon="4.63098">
        <ele>7</ele>
        <time>2013-05-10T09:06:52Z</time>
      </trkpt>
      <trkpt lat="43.68153" lon="4.63108">
        <ele>7</ele>
        <time>2013-05-10T09:07:03Z</time>
      </trkpt>
      <trkpt lat="43.68147" lon="4.63113">
        <ele>7</ele>
        <time>2013-05-10T09:07:14Z</time>
      </trkpt>
      <trkpt lat="43.68137" lon="4.63116">
        <ele>7</ele>
        <time>2013-05-10T09:07:25Z</time>
      </trkpt>
      <trkpt lat="43.68129" lon="4.63116">
        <ele>7</ele>
        <time>2013-05-10T09:07:35Z</time>
      </trkpt>
      <trkpt lat="43.6812" lon="4.63113">
        <ele>7</ele>
        <time>2013-05-10T09:07:45Z</time>
      </trkpt>
      <trkpt lat="43.68113" lon="4.63112">
        <ele>13</ele>
        <time>2013-05-10T09:07:55Z</time>
      </trkpt>
      <trkpt lat="43.68106" lon="4.63118">
        <ele>15</ele>
        <time>2013-05-10T09:08:07Z</time>
      </trkpt>
      <trkpt lat="43.68096" lon="4.63123">
        <ele>19</ele>
        <time>2013-05-10T09:08:17Z</time>
      </trkpt>
      <trkpt lat="43.68081" lon="4.63129">
        <ele>23</ele>
        <time>2013-05-10T09:08:27Z</time>
      </trkpt>
      <trkpt lat="43.68069" lon="4.63134">
        <ele>23</ele>
        <time>2013-05-10T09:08:38Z</time>
      </trkpt>
      <trkpt lat="43.68057" lon="4.63141">
        <ele>23</ele>
        <time>2013-05-10T09:08:48Z</time>
      </trkpt>
      <trkpt lat="43.68052" lon="4.63142">
        <ele>17</ele>
        <time>2013-05-10T09:08:59Z</time>
      </trkpt>
      <trkpt lat="43.6805" lon="4.63141">
        <ele>16</ele>
        <time>2013-05-10T09:09:10Z</time>
      </trkpt>
      <trkpt lat="43.68047" lon="4.63135">
        <ele>16</ele>
        <time>2013-05-10T09:09:21Z</time>
      </trkpt>
      <trkpt lat="43.68049" lon="4.63137">
        <ele>16</ele>
        <time>2013-05-10T09:09:33Z</time>
      </trkpt>
      <trkpt lat="43.68047" lon="4.63139">
        <ele>19</ele>
        <time>2013-05-10T09:09:43Z</time>
      </trkpt>
      <trkpt lat="43.68047" lon="4.63137">
        <ele>22</ele>
        <time>2013-05-10T09:09:53Z</time>
      </trkpt>
      <trkpt lat="43.68044" lon="4.63133">
        <ele>20</ele>
        <time>2013-05-10T09:10:03Z</time>
      </trkpt>
      <trkpt lat="43.68042" lon="4.63131">
        <ele>20</ele>
        <time>2013-05-10T09:10:13Z</time>
      </trkpt>
      <trkpt lat="43.68043" lon="4.63123">
        <ele>20</ele>
        <time>2013-05-10T09:10:28Z</time>
      </trkpt>
      <trkpt lat="43.68043" lon="4.63118">
        <ele>20</ele>
        <time>2013-05-10T09:10:39Z</time>
      </trkpt>
      <trkpt lat="43.68039" lon="4.63113">
        <ele>20</ele>
        <time>2013-05-10T09:10:49Z</time>
      </trkpt>
      <trkpt lat="43.6804" lon="4.63113">
        <ele>17</ele>
        <time>2013-05-10T09:10:59Z</time>
      </trkpt>
      <trkpt lat="43.68042" lon="4.63107">
        <ele>14</ele>
        <time>2013-05-10T09:11:12Z</time>
      </trkpt>
      <trkpt lat="43.6803" lon="4.63097">
        <ele>14</ele>
        <time>2013-05-10T09:11:22Z</time>
      </trkpt>
      <trkpt lat="43.68022" lon="4.63091">
        <ele>14</ele>
        <time>2013-05-10T09:11:32Z</time>
      </trkpt>
      <trkpt lat="43.68013" lon="4.63079">
        <ele>12</ele>
        <time>2013-05-10T09:11:42Z</time>
      </trkpt>
      <trkpt lat="43.68006" lon="4.63071">
        <ele>12</ele>
        <time>2013-05-10T09:11:53Z</time>
      </trkpt>
      <trkpt lat="43.67998" lon="4.63069">
        <ele>12</ele>
        <time>2013-05-10T09:12:04Z</time>
      </trkpt>
      <trkpt lat="43.67993" lon="4.63066">
        <ele>12</ele>
        <time>2013-05-10T09:12:14Z</time>
      </trkpt>
      <trkpt lat="43.67983" lon="4.63056">
        <ele>12</ele>
        <time>2013-05-10T09:12:26Z</time>
      </trkpt>
      <trkpt lat="43.67974" lon="4.63053">
        <ele>12</ele>
        <time>2013-05-10T09:12:36Z</time>
      </trkpt>
      <trkpt lat="43.67965" lon="4.63037">
        <ele>12</ele>
        <time>2013-05-10T09:12:47Z</time>
      </trkpt>
      <trkpt lat="43.67962" lon="4.6303">
        <ele>15</ele>
        <time>2013-05-10T09:12:58Z</time>
      </trkpt>
      <trkpt lat="43.67955" lon="4.63027">
        <ele>15</ele>
        <time>2013-05-10T09:13:08Z</time>
      </trkpt>
      <trkpt lat="43.67948" lon="4.63031">
        <ele>15</ele>
        <time>2013-05-10T09:13:20Z</time>
      </trkpt>
      <trkpt lat="43.67941" lon="4.63026">
        <ele>14</ele>
        <time>2013-05-10T09:13:30Z</time>
      </trkpt>
      <trkpt lat="43.67943" lon="4.63023">
        <ele>11</ele>
        <time>2013-05-10T09:13:40Z</time>
      </trkpt>
      <trkpt lat="43.67946" lon="4.6302">
        <ele>5</ele>
        <time>2013-05-10T09:13:53Z</time>
      </trkpt>
      <trkpt lat="43.67942" lon="4.63013">
        <ele>5</ele>
        <time>2013-05-10T09:14:03Z</time>
      </trkpt>
      <trkpt lat="43.67936" lon="4.63006">
        <ele>5</ele>
        <time>2013-05-10T09:14:13Z</time>
      </trkpt>
      <trkpt lat="43.67929" lon="4.62996">
        <ele>2</ele>
        <time>2013-05-10T09:14:23Z</time>
      </trkpt>
      <trkpt lat="43.67924" lon="4.62989">
        <ele>9</ele>
        <time>2013-05-10T09:14:33Z</time>
      </trkpt>
      <trkpt lat="43.6792" lon="4.62981">
        <ele>9</ele>
        <time>2013-05-10T09:14:43Z</time>
      </trkpt>
      <trkpt lat="43.67918" lon="4.62972">
        <ele>-1</ele>
        <time>2013-05-10T09:14:55Z</time>
      </trkpt>
      <trkpt lat="43.67919" lon="4.62966">
        <ele>9.2</ele>
        <time>2013-05-10T09:15:08Z</time>
      </trkpt>
      <trkpt lat="43.67918" lon="4.62965">
        <ele>9.3</ele>
        <time>2013-05-10T09:15:22Z</time>
      </trkpt>
      <trkpt lat="43.67917" lon="4.62964">
        <ele>9.3</ele>
        <time>2013-05-10T09:15:35Z</time>
      </trkpt>
      <trkpt lat="43.67916" lon="4.62962">
        <ele>9.4</ele>
        <time>2013-05-10T09:15:45Z</time>
      </trkpt>
      <trkpt lat="43.6792" lon="4.62956">
        <ele>5</ele>
        <time>2013-05-10T09:15:55Z</time>
      </trkpt>
      <trkpt lat="43.67915" lon="4.62964">
        <ele>8</ele>
        <time>2013-05-10T09:16:06Z</time>
      </trkpt>
      <trkpt lat="43.67917" lon="4.62961">
        <ele>8</ele>
        <time>2013-05-10T09:16:20Z</time>
      </trkpt>
      <trkpt lat="43.67917" lon="4.62965">
        <ele>16</ele>
        <time>2013-05-10T09:16:37Z</time>
      </trkpt>
      <trkpt lat="43.67915" lon="4.62964">
        <ele>18</ele>
        <time>2013-05-10T09:16:49Z</time>
      </trkpt>
      <trkpt lat="43.67915" lon="4.62961">
        <ele>18</ele>
        <time>2013-05-10T09:17:08Z</time>
      </trkpt>
      <trkpt lat="43.67908" lon="4.62956">
        <ele>13</ele>
        <time>2013-05-10T09:17:18Z</time>
      </trkpt>
      <trkpt lat="43.67908" lon="4.62951">
        <ele>9</ele>
        <time>2013-05-10T09:17:33Z</time>
      </trkpt>
      <trkpt lat="43.67912" lon="4.62956">
        <ele>9</ele>
        <time>2013-05-10T09:17:43Z</time>
      </trkpt>
      <trkpt lat="43.67915" lon="4.62962">
        <ele>11</ele>
        <time>2013-05-10T09:17:54Z</time>
      </trkpt>
      <trkpt lat="43.6791" lon="4.62955">
        <ele>11</ele>
        <time>2013-05-10T09:18:04Z</time>
      </trkpt>
      <trkpt lat="43.67904" lon="4.62942">
        <ele>11</ele>
        <time>2013-05-10T09:18:15Z</time>
      </trkpt>
      <trkpt lat="43.67899" lon="4.62931">
        <ele>10</ele>
        <time>2013-05-10T09:18:25Z</time>
      </trkpt>
      <trkpt lat="43.67895" lon="4.62923">
        <ele>5</ele>
        <time>2013-05-10T09:18:39Z</time>
      </trkpt>
      <trkpt lat="43.67897" lon="4.62917">
        <ele>5</ele>
        <time>2013-05-10T09:18:50Z</time>
      </trkpt>
      <trkpt lat="43.67904" lon="4.62913">
        <ele>5</ele>
        <time>2013-05-10T09:19:00Z</time>
      </trkpt>
      <trkpt lat="43.67911" lon="4.6291">
        <ele>11</ele>
        <time>2013-05-10T09:19:12Z</time>
      </trkpt>
      <trkpt lat="43.67916" lon="4.62909">
        <ele>16</ele>
        <time>2013-05-10T09:19:23Z</time>
      </trkpt>
      <trkpt lat="43.67918" lon="4.62904">
        <ele>24</ele>
        <time>2013-05-10T09:19:34Z</time>
      </trkpt>
      <trkpt lat="43.67926" lon="4.62902">
        <ele>18</ele>
        <time>2013-05-10T09:19:45Z</time>
      </trkpt>
      <trkpt lat="43.67923" lon="4.62894">
        <ele>18</ele>
        <time>2013-05-10T09:19:56Z</time>
      </trkpt>
      <trkpt lat="43.67927" lon="4.62889">
        <ele>18</ele>
        <time>2013-05-10T09:20:08Z</time>
      </trkpt>
      <trkpt lat="43.67926" lon="4.62876">
        <ele>18</ele>
        <time>2013-05-10T09:20:18Z</time>
      </trkpt>
      <trkpt lat="43.67926" lon="4.62867">
        <ele>15</ele>
        <time>2013-05-10T09:20:29Z</time>
      </trkpt>
      <trkpt lat="43.67925" lon="4.62856">
        <ele>12</ele>
        <time>2013-05-10T09:20:39Z</time>
      </trkpt>
      <trkpt lat="43.67926" lon="4.62845">
        <ele>12</ele>
        <time>2013-05-10T09:20:49Z</time>
      </trkpt>
      <trkpt lat="43.67927" lon="4.62832">
        <ele>12</ele>
        <time>2013-05-10T09:20:59Z</time>
      </trkpt>
      <trkpt lat="43.67925" lon="4.62827">
        <ele>13</ele>
        <time>2013-05-10T09:21:10Z</time>
      </trkpt>
      <trkpt lat="43.67924" lon="4.62826">
        <ele>13</ele>
        <time>2013-05-10T09:21:22Z</time>
      </trkpt>
      <trkpt lat="43.67924" lon="4.62828">
        <ele>13</ele>
        <time>2013-05-10T09:21:41Z</time>
      </trkpt>
      <trkpt lat="43.67924" lon="4.62827">
        <ele>16</ele>
        <time>2013-05-10T09:21:54Z</time>
      </trkpt>
      <trkpt lat="43.67923" lon="4.62827">
        <ele>19</ele>
        <time>2013-05-10T09:22:04Z</time>
      </trkpt>
      <trkpt lat="43.67921" lon="4.62828">
        <ele>21</ele>
        <time>2013-05-10T09:22:15Z</time>
      </trkpt>
      <trkpt lat="43.67923" lon="4.62825">
        <ele>21</ele>
        <time>2013-05-10T09:22:33Z</time>
      </trkpt>
      <trkpt lat="43.67923" lon="4.62828">
        <ele>21</ele>
        <time>2013-05-10T09:22:46Z</time>
      </trkpt>
      <trkpt lat="43.67924" lon="4.6283">
        <ele>13</ele>
        <time>2013-05-10T09:22:56Z</time>
      </trkpt>
      <trkpt lat="43.67922" lon="4.62833">
        <ele>10</ele>
        <time>2013-05-10T09:23:10Z</time>
      </trkpt>
      <trkpt lat="43.67922" lon="4.62829">
        <ele>19</ele>
        <time>2013-05-10T09:23:29Z</time>
      </trkpt>
      <trkpt lat="43.67923" lon="4.62817">
        <ele>19</ele>
        <time>2013-05-10T09:23:41Z</time>
      </trkpt>
      <trkpt lat="43.67918" lon="4.62816">
        <ele>19</ele>
        <time>2013-05-10T09:23:51Z</time>
      </trkpt>
      <trkpt lat="43.67925" lon="4.62819">
        <ele>13</ele>
        <time>2013-05-10T09:24:01Z</time>
      </trkpt>
      <trkpt lat="43.67916" lon="4.6282">
        <ele>13</ele>
        <time>2013-05-10T09:24:12Z</time>
      </trkpt>
      <trkpt lat="43.67909" lon="4.62818">
        <ele>13</ele>
        <time>2013-05-10T09:24:22Z</time>
      </trkpt>
      <trkpt lat="43.67906" lon="4.62813">
        <ele>10</ele>
        <time>2013-05-10T09:24:33Z</time>
      </trkpt>
      <trkpt lat="43.67899" lon="4.62814">
        <ele>11</ele>
        <time>2013-05-10T09:24:43Z</time>
      </trkpt>
      <trkpt lat="43.67891" lon="4.62812">
        <ele>19</ele>
        <time>2013-05-10T09:24:53Z</time>
      </trkpt>
      <trkpt lat="43.67885" lon="4.62811">
        <ele>21</ele>
        <time>2013-05-10T09:25:03Z</time>
      </trkpt>
      <trkpt lat="43.67885" lon="4.62813">
        <ele>21</ele>
        <time>2013-05-10T09:25:13Z</time>
      </trkpt>
      <trkpt lat="43.67886" lon="4.62813">
        <ele>17</ele>
        <time>2013-05-10T09:25:23Z</time>
      </trkpt>
      <trkpt lat="43.67879" lon="4.62814">
        <ele>18</ele>
        <time>2013-05-10T09:25:33Z</time>
      </trkpt>
      <trkpt lat="43.67877" lon="4.62815">
        <ele>24</ele>
        <time>2013-05-10T09:25:43Z</time>
      </trkpt>
      <trkpt lat="43.67878" lon="4.62817">
        <ele>24</ele>
        <time>2013-05-10T09:25:58Z</time>
      </trkpt>
      <trkpt lat="43.67878" lon="4.62817">
        <ele>22</ele>
        <time>2013-05-10T09:26:12Z</time>
      </trkpt>
      <trkpt lat="43.6788" lon="4.62814">
        <ele>20</ele>
        <time>2013-05-10T09:26:25Z</time>
      </trkpt>
      <trkpt lat="43.67881" lon="4.62809">
        <ele>11</ele>
        <time>2013-05-10T09:26:36Z</time>
      </trkpt>
      <trkpt lat="43.6788" lon="4.62809">
        <ele>8</ele>
        <time>2013-05-10T09:26:47Z</time>
      </trkpt>
      <trkpt lat="43.67882" lon="4.62805">
        <ele>14</ele>
        <time>2013-05-10T09:26:57Z</time>
      </trkpt>
      <trkpt lat="43.67881" lon="4.62806">
        <ele>17</ele>
        <time>2013-05-10T09:27:09Z</time>
      </trkpt>
      <trkpt lat="43.67883" lon="4.62779">
        <ele>18</ele>
        <time>2013-05-10T09:27:34Z</time>
      </trkpt>
      <trkpt lat="43.67882" lon="4.62768">
        <ele>19</ele>
        <time>2013-05-10T09:27:45Z</time>
      </trkpt>
      <trkpt lat="43.67879" lon="4.6276">
        <ele>19</ele>
        <time>2013-05-10T09:27:56Z</time>
      </trkpt>
      <trkpt lat="43.67879" lon="4.62756">
        <ele>19</ele>
        <time>2013-05-10T09:28:07Z</time>
      </trkpt>
      <trkpt lat="43.67877" lon="4.62746">
        <ele>17</ele>
        <time>2013-05-10T09:28:18Z</time>
      </trkpt>
      <trkpt lat="43.67874" lon="4.62737">
        <ele>16</ele>
        <time>2013-05-10T09:28:29Z</time>
      </trkpt>
      <trkpt lat="43.67868" lon="4.62735">
        <ele>15</ele>
        <time>2013-05-10T09:28:39Z</time>
      </trkpt>
      <trkpt lat="43.67858" lon="4.62732">
        <ele>14</ele>
        <time>2013-05-10T09:28:49Z</time>
      </trkpt>
      <trkpt lat="43.67846" lon="4.62731">
        <ele>19</ele>
        <time>2013-05-10T09:29:01Z</time>
      </trkpt>
      <trkpt lat="43.67847" lon="4.62733">
        <ele>25</ele>
        <time>2013-05-10T09:29:12Z</time>
      </trkpt>
      <trkpt lat="43.67848" lon="4.62733">
        <ele>33</ele>
        <time>2013-05-10T09:29:24Z</time>
      </trkpt>
      <trkpt lat="43.67846" lon="4.62731">
        <ele>34</ele>
        <time>2013-05-10T09:29:39Z</time>
      </trkpt>
      <trkpt lat="43.67845" lon="4.62731">
        <ele>31</ele>
        <time>2013-05-10T09:29:49Z</time>
      </trkpt>
      <trkpt lat="43.67844" lon="4.6273">
        <ele>26</ele>
        <time>2013-05-10T09:29:59Z</time>
      </trkpt>
      <trkpt lat="43.67842" lon="4.62724">
        <ele>27</ele>
        <time>2013-05-10T09:30:13Z</time>
      </trkpt>
      <trkpt lat="43.67841" lon="4.62716">
        <ele>28</ele>
        <time>2013-05-10T09:30:24Z</time>
      </trkpt>
      <trkpt lat="43.67836" lon="4.62715">
        <ele>26</ele>
        <time>2013-05-10T09:30:34Z</time>
      </trkpt>
      <trkpt lat="43.67828" lon="4.62708">
        <ele>21</ele>
        <time>2013-05-10T09:30:46Z</time>
      </trkpt>
      <trkpt lat="43.67823" lon="4.62705">
        <ele>16</ele>
        <time>2013-05-10T09:31:01Z</time>
      </trkpt>
      <trkpt lat="43.67818" lon="4.62706">
        <ele>27</ele>
        <time>2013-05-10T09:31:12Z</time>
      </trkpt>
      <trkpt lat="43.67815" lon="4.62709">
        <ele>29</ele>
        <time>2013-05-10T09:31:22Z</time>
      </trkpt>
      <trkpt lat="43.67809" lon="4.62712">
        <ele>29</ele>
        <time>2013-05-10T09:31:32Z</time>
      </trkpt>
      <trkpt lat="43.67803" lon="4.62713">
        <ele>28</ele>
        <time>2013-05-10T09:31:43Z</time>
      </trkpt>
      <trkpt lat="43.67796" lon="4.62712">
        <ele>28</ele>
        <time>2013-05-10T09:31:53Z</time>
      </trkpt>
      <trkpt lat="43.67791" lon="4.62706">
        <ele>26</ele>
        <time>2013-05-10T09:32:03Z</time>
      </trkpt>
      <trkpt lat="43.67784" lon="4.62711">
        <ele>23</ele>
        <time>2013-05-10T09:32:13Z</time>
      </trkpt>
      <trkpt lat="43.67783" lon="4.62712">
        <ele>23</ele>
        <time>2013-05-10T09:32:24Z</time>
      </trkpt>
      <trkpt lat="43.67783" lon="4.6271">
        <ele>29</ele>
        <time>2013-05-10T09:32:45Z</time>
      </trkpt>
      <trkpt lat="43.67783" lon="4.62713">
        <ele>29</ele>
        <time>2013-05-10T09:32:56Z</time>
      </trkpt>
      <trkpt lat="43.67786" lon="4.6272">
        <ele>20</ele>
        <time>2013-05-10T09:33:08Z</time>
      </trkpt>
      <trkpt lat="43.67781" lon="4.62716">
        <ele>22</ele>
        <time>2013-05-10T09:33:19Z</time>
      </trkpt>
      <trkpt lat="43.6778" lon="4.62717">
        <ele>29</ele>
        <time>2013-05-10T09:33:46Z</time>
      </trkpt>
      <trkpt lat="43.67781" lon="4.62716">
        <ele>28</ele>
        <time>2013-05-10T09:34:39Z</time>
      </trkpt>
      <trkpt lat="43.67779" lon="4.62714">
        <ele>27</ele>
        <time>2013-05-10T09:34:55Z</time>
      </trkpt>
      <trkpt lat="43.67773" lon="4.62714">
        <ele>27</ele>
        <time>2013-05-10T09:35:07Z</time>
      </trkpt>
      <trkpt lat="43.67767" lon="4.62713">
        <ele>27</ele>
        <time>2013-05-10T09:35:17Z</time>
      </trkpt>
      <trkpt lat="43.6776" lon="4.62713">
        <ele>27</ele>
        <time>2013-05-10T09:35:27Z</time>
      </trkpt>
      <trkpt lat="43.67756" lon="4.62711">
        <ele>27</ele>
        <time>2013-05-10T09:35:42Z</time>
      </trkpt>
      <trkpt lat="43.67757" lon="4.62714">
        <ele>27</ele>
        <time>2013-05-10T09:35:53Z</time>
      </trkpt>
      <trkpt lat="43.67755" lon="4.62719">
        <ele>27</ele>
        <time>2013-05-10T09:36:12Z</time>
      </trkpt>
      <trkpt lat="43.67751" lon="4.62717">
        <ele>27</ele>
        <time>2013-05-10T09:36:25Z</time>
      </trkpt>
      <trkpt lat="43.6775" lon="4.62711">
        <ele>27</ele>
        <time>2013-05-10T09:36:37Z</time>
      </trkpt>
      <trkpt lat="43.67749" lon="4.62708">
        <ele>21</ele>
        <time>2013-05-10T09:37:06Z</time>
      </trkpt>
      <trkpt lat="43.6775" lon="4.6271">
        <ele>19</ele>
        <time>2013-05-10T09:37:17Z</time>
      </trkpt>
      <trkpt lat="43.67745" lon="4.62711">
        <ele>18</ele>
        <time>2013-05-10T09:37:27Z</time>
      </trkpt>
      <trkpt lat="43.67747" lon="4.62707">
        <ele>20</ele>
        <time>2013-05-10T09:37:37Z</time>
      </trkpt>
      <trkpt lat="43.6775" lon="4.62703">
        <ele>30</ele>
        <time>2013-05-10T09:37:47Z</time>
      </trkpt>
      <trkpt lat="43.67746" lon="4.62708">
        <ele>30</ele>
        <time>2013-05-10T09:37:57Z</time>
      </trkpt>
      <trkpt lat="43.6773" lon="4.62711">
        <ele>26</ele>
        <time>2013-05-10T09:38:08Z</time>
      </trkpt>
      <trkpt lat="43.67722" lon="4.6271">
        <ele>24</ele>
        <time>2013-05-10T09:38:19Z</time>
      </trkpt>
      <trkpt lat="43.67712" lon="4.62713">
        <ele>20</ele>
        <time>2013-05-10T09:38:30Z</time>
      </trkpt>
      <trkpt lat="43.67702" lon="4.62711">
        <ele>20</ele>
        <time>2013-05-10T09:38:40Z</time>
      </trkpt>
      <trkpt lat="43.67698" lon="4.62712">
        <ele>26</ele>
        <time>2013-05-10T09:38:50Z</time>
      </trkpt>
      <trkpt lat="43.67697" lon="4.62713">
        <ele>26</ele>
        <time>2013-05-10T09:39:02Z</time>
      </trkpt>
      <trkpt lat="43.67697" lon="4.62716">
        <ele>23</ele>
        <time>2013-05-10T09:39:15Z</time>
      </trkpt>
      <trkpt lat="43.67697" lon="4.62718">
        <ele>23</ele>
        <time>2013-05-10T09:39:25Z</time>
      </trkpt>
      <trkpt lat="43.67686" lon="4.62721">
        <ele>19</ele>
        <time>2013-05-10T09:39:41Z</time>
      </trkpt>
      <trkpt lat="43.67672" lon="4.62726">
        <ele>12</ele>
        <time>2013-05-10T09:39:52Z</time>
      </trkpt>
      <trkpt lat="43.67674" lon="4.62712">
        <ele>17</ele>
        <time>2013-05-10T09:40:03Z</time>
      </trkpt>
      <trkpt lat="43.67677" lon="4.62706">
        <ele>20</ele>
        <time>2013-05-10T09:40:14Z</time>
      </trkpt>
      <trkpt lat="43.67672" lon="4.62717">
        <ele>24</ele>
        <time>2013-05-10T09:40:24Z</time>
      </trkpt>
      <trkpt lat="43.67676" lon="4.62719">
        <ele>28</ele>
        <time>2013-05-10T09:40:34Z</time>
      </trkpt>
      <trkpt lat="43.67679" lon="4.62721">
        <ele>28</ele>
        <time>2013-05-10T09:40:44Z</time>
      </trkpt>
      <trkpt lat="43.67687" lon="4.62725">
        <ele>28</ele>
        <time>2013-05-10T09:40:54Z</time>
      </trkpt>
      <trkpt lat="43.67693" lon="4.62727">
        <ele>25</ele>
        <time>2013-05-10T09:41:05Z</time>
      </trkpt>
      <trkpt lat="43.67697" lon="4.62728">
        <ele>24</ele>
        <time>2013-05-10T09:41:19Z</time>
      </trkpt>
      <trkpt lat="43.67696" lon="4.62733">
        <ele>20</ele>
        <time>2013-05-10T09:41:30Z</time>
      </trkpt>
      <trkpt lat="43.67686" lon="4.62721">
        <ele>24</ele>
        <time>2013-05-10T09:41:41Z</time>
      </trkpt>
      <trkpt lat="43.67688" lon="4.62726">
        <ele>25</ele>
        <time>2013-05-10T09:41:51Z</time>
      </trkpt>
      <trkpt lat="43.67688" lon="4.62731">
        <ele>22</ele>
        <time>2013-05-10T09:42:03Z</time>
      </trkpt>
      <trkpt lat="43.67685" lon="4.62721">
        <ele>25</ele>
        <time>2013-05-10T09:42:14Z</time>
      </trkpt>
      <trkpt lat="43.67683" lon="4.6272">
        <ele>39</ele>
        <time>2013-05-10T09:42:28Z</time>
      </trkpt>
      <trkpt lat="43.67682" lon="4.62722">
        <ele>46</ele>
        <time>2013-05-10T09:42:39Z</time>
      </trkpt>
      <trkpt lat="43.677" lon="4.62715">
        <ele>47</ele>
        <time>2013-05-10T09:43:21Z</time>
      </trkpt>
      <trkpt lat="43.677" lon="4.62712">
        <ele>46</ele>
        <time>2013-05-10T09:43:32Z</time>
      </trkpt>
      <trkpt lat="43.67708" lon="4.6272">
        <ele>39</ele>
        <time>2013-05-10T09:43:47Z</time>
      </trkpt>
      <trkpt lat="43.67736" lon="4.62787">
        <ele>33</ele>
        <time>2013-05-10T09:48:15Z</time>
      </trkpt>
      <trkpt lat="43.67676" lon="4.62774">
        <ele>26</ele>
        <time>2013-05-10T09:48:26Z</time>
      </trkpt>
      <trkpt lat="43.67671" lon="4.62767">
        <ele>47</ele>
        <time>2013-05-10T09:48:46Z</time>
      </trkpt>
      <trkpt lat="43.67677" lon="4.62774">
        <ele>41</ele>
        <time>2013-05-10T09:49:00Z</time>
      </trkpt>
      <trkpt lat="43.67669" lon="4.62776">
        <ele>39</ele>
        <time>2013-05-10T09:49:10Z</time>
      </trkpt>
      <trkpt lat="43.67666" lon="4.62774">
        <ele>44</ele>
        <time>2013-05-10T09:49:20Z</time>
      </trkpt>
      <trkpt lat="43.67665" lon="4.6277">
        <ele>44</ele>
        <time>2013-05-10T09:49:30Z</time>
      </trkpt>
      <trkpt lat="43.67667" lon="4.62766">
        <ele>44</ele>
        <time>2013-05-10T09:49:43Z</time>
      </trkpt>
      <trkpt lat="43.67672" lon="4.62765">
        <ele>41</ele>
        <time>2013-05-10T09:49:53Z</time>
      </trkpt>
      <trkpt lat="43.67672" lon="4.62761">
        <ele>31</ele>
        <time>2013-05-10T09:50:07Z</time>
      </trkpt>
      <trkpt lat="43.67672" lon="4.62761">
        <ele>16</ele>
        <time>2013-05-10T09:50:18Z</time>
      </trkpt>
      <trkpt lat="43.67668" lon="4.6277">
        <ele>13</ele>
        <time>2013-05-10T09:50:28Z</time>
      </trkpt>
      <trkpt lat="43.67659" lon="4.62776">
        <ele>23</ele>
        <time>2013-05-10T09:50:38Z</time>
      </trkpt>
      <trkpt lat="43.67653" lon="4.62779">
        <ele>24</ele>
        <time>2013-05-10T09:50:53Z</time>
      </trkpt>
      <trkpt lat="43.67636" lon="4.62833">
        <ele>28</ele>
        <time>2013-05-10T09:51:56Z</time>
      </trkpt>
      <trkpt lat="43.67641" lon="4.62823">
        <ele>26</ele>
        <time>2013-05-10T09:52:06Z</time>
      </trkpt>
      <trkpt lat="43.67641" lon="4.62831">
        <ele>23</ele>
        <time>2013-05-10T09:52:20Z</time>
      </trkpt>
      <trkpt lat="43.67643" lon="4.62836">
        <ele>23</ele>
        <time>2013-05-10T09:53:04Z</time>
      </trkpt>
      <trkpt lat="43.67641" lon="4.62836">
        <ele>23</ele>
        <time>2013-05-10T09:53:37Z</time>
      </trkpt>
      <trkpt lat="43.67642" lon="4.62837">
        <ele>23</ele>
        <time>2013-05-10T09:53:54Z</time>
      </trkpt>
      <trkpt lat="43.67642" lon="4.62834">
        <ele>23</ele>
        <time>2013-05-10T09:54:16Z</time>
      </trkpt>
      <trkpt lat="43.67643" lon="4.6284">
        <ele>26</ele>
        <time>2013-05-10T09:54:27Z</time>
      </trkpt>
      <trkpt lat="43.67641" lon="4.62836">
        <ele>21</ele>
        <time>2013-05-10T09:54:42Z</time>
      </trkpt>
      <trkpt lat="43.67641" lon="4.62834">
        <ele>18</ele>
        <time>2013-05-10T09:54:53Z</time>
      </trkpt>
      <trkpt lat="43.67642" lon="4.62832">
        <ele>19</ele>
        <time>2013-05-10T09:55:10Z</time>
      </trkpt>
      <trkpt lat="43.67643" lon="4.6283">
        <ele>22</ele>
        <time>2013-05-10T09:55:21Z</time>
      </trkpt>
      <trkpt lat="43.67643" lon="4.62833">
        <ele>23</ele>
        <time>2013-05-10T09:55:43Z</time>
      </trkpt>
      <trkpt lat="43.67643" lon="4.6283">
        <ele>21</ele>
        <time>2013-05-10T09:56:13Z</time>
      </trkpt>
      <trkpt lat="43.67645" lon="4.62821">
        <ele>22</ele>
        <time>2013-05-10T09:56:23Z</time>
      </trkpt>
      <trkpt lat="43.67643" lon="4.62782">
        <ele>21</ele>
        <time>2013-05-10T09:56:51Z</time>
      </trkpt>
      <trkpt lat="43.67639" lon="4.62778">
        <ele>19</ele>
        <time>2013-05-10T09:57:01Z</time>
      </trkpt>
      <trkpt lat="43.67633" lon="4.62772">
        <ele>18</ele>
        <time>2013-05-10T09:57:12Z</time>
      </trkpt>
      <trkpt lat="43.67627" lon="4.62766">
        <ele>18</ele>
        <time>2013-05-10T09:57:23Z</time>
      </trkpt>
      <trkpt lat="43.67626" lon="4.62761">
        <ele>14</ele>
        <time>2013-05-10T09:57:39Z</time>
      </trkpt>
      <trkpt lat="43.67625" lon="4.62756">
        <ele>14</ele>
        <time>2013-05-10T09:57:52Z</time>
      </trkpt>
      <trkpt lat="43.67628" lon="4.62756">
        <ele>14</ele>
        <time>2013-05-10T09:58:02Z</time>
      </trkpt>
      <trkpt lat="43.67627" lon="4.62756">
        <ele>14</ele>
        <time>2013-05-10T09:58:13Z</time>
      </trkpt>
      <trkpt lat="43.67627" lon="4.62754">
        <ele>14</ele>
        <time>2013-05-10T09:58:27Z</time>
      </trkpt>
      <trkpt lat="43.67626" lon="4.62749">
        <ele>14</ele>
        <time>2013-05-10T09:58:39Z</time>
      </trkpt>
      <trkpt lat="43.6762" lon="4.62739">
        <ele>14</ele>
        <time>2013-05-10T09:58:50Z</time>
      </trkpt>
      <trkpt lat="43.67617" lon="4.62732">
        <ele>16</ele>
        <time>2013-05-10T09:59:00Z</time>
      </trkpt>
      <trkpt lat="43.6762" lon="4.62718">
        <ele>16</ele>
        <time>2013-05-10T09:59:10Z</time>
      </trkpt>
      <trkpt lat="43.67623" lon="4.62707">
        <ele>16</ele>
        <time>2013-05-10T09:59:20Z</time>
      </trkpt>
      <trkpt lat="43.67626" lon="4.62698">
        <ele>16</ele>
        <time>2013-05-10T09:59:31Z</time>
      </trkpt>
      <trkpt lat="43.67629" lon="4.62688">
        <ele>16</ele>
        <time>2013-05-10T09:59:42Z</time>
      </trkpt>
      <trkpt lat="43.67631" lon="4.62679">
        <ele>16</ele>
        <time>2013-05-10T09:59:53Z</time>
      </trkpt>
      <trkpt lat="43.6763" lon="4.62675">
        <ele>16</ele>
        <time>2013-05-10T10:00:12Z</time>
      </trkpt>
      <trkpt lat="43.67632" lon="4.62668">
        <ele>16</ele>
        <time>2013-05-10T10:00:22Z</time>
      </trkpt>
      <trkpt lat="43.67631" lon="4.62665">
        <ele>16</ele>
        <time>2013-05-10T10:00:33Z</time>
      </trkpt>
      <trkpt lat="43.67632" lon="4.62657">
        <ele>18</ele>
        <time>2013-05-10T10:00:43Z</time>
      </trkpt>
      <trkpt lat="43.67635" lon="4.62654">
        <ele>21</ele>
        <time>2013-05-10T10:00:54Z</time>
      </trkpt>
      <trkpt lat="43.67639" lon="4.62648">
        <ele>21</ele>
        <time>2013-05-10T10:01:04Z</time>
      </trkpt>
      <trkpt lat="43.67644" lon="4.62641">
        <ele>21</ele>
        <time>2013-05-10T10:01:15Z</time>
      </trkpt>
      <trkpt lat="43.67645" lon="4.62633">
        <ele>21</ele>
        <time>2013-05-10T10:01:25Z</time>
      </trkpt>
      <trkpt lat="43.67644" lon="4.62628">
        <ele>21</ele>
        <time>2013-05-10T10:01:35Z</time>
      </trkpt>
      <trkpt lat="43.67646" lon="4.62627">
        <ele>25</ele>
        <time>2013-05-10T10:01:47Z</time>
      </trkpt>
      <trkpt lat="43.67646" lon="4.62616">
        <ele>25</ele>
        <time>2013-05-10T10:01:58Z</time>
      </trkpt>
      <trkpt lat="43.67637" lon="4.62617">
        <ele>26</ele>
        <time>2013-05-10T10:02:08Z</time>
      </trkpt>
      <trkpt lat="43.67627" lon="4.62619">
        <ele>30</ele>
        <time>2013-05-10T10:02:18Z</time>
      </trkpt>
      <trkpt lat="43.67624" lon="4.62617">
        <ele>30</ele>
        <time>2013-05-10T10:02:28Z</time>
      </trkpt>
      <trkpt lat="43.67619" lon="4.62616">
        <ele>28</ele>
        <time>2013-05-10T10:02:38Z</time>
      </trkpt>
      <trkpt lat="43.67611" lon="4.62615">
        <ele>25</ele>
        <time>2013-05-10T10:02:49Z</time>
      </trkpt>
      <trkpt lat="43.67603" lon="4.62621">
        <ele>25</ele>
        <time>2013-05-10T10:03:01Z</time>
      </trkpt>
      <trkpt lat="43.67599" lon="4.62622">
        <ele>21</ele>
        <time>2013-05-10T10:03:16Z</time>
      </trkpt>
      <trkpt lat="43.67593" lon="4.62618">
        <ele>21</ele>
        <time>2013-05-10T10:03:28Z</time>
      </trkpt>
      <trkpt lat="43.67596" lon="4.62608">
        <ele>21</ele>
        <time>2013-05-10T10:03:38Z</time>
      </trkpt>
      <trkpt lat="43.67593" lon="4.62602">
        <ele>21</ele>
        <time>2013-05-10T10:03:48Z</time>
      </trkpt>
      <trkpt lat="43.67588" lon="4.62576">
        <ele>30</ele>
        <time>2013-05-10T10:04:15Z</time>
      </trkpt>
      <trkpt lat="43.67587" lon="4.62564">
        <ele>23</ele>
        <time>2013-05-10T10:04:26Z</time>
      </trkpt>
      <trkpt lat="43.6759" lon="4.62564">
        <ele>23</ele>
        <time>2013-05-10T10:04:37Z</time>
      </trkpt>
      <trkpt lat="43.67592" lon="4.62569">
        <ele>23</ele>
        <time>2013-05-10T10:04:48Z</time>
      </trkpt>
      <trkpt lat="43.67593" lon="4.6257">
        <ele>21</ele>
        <time>2013-05-10T10:05:01Z</time>
      </trkpt>
      <trkpt lat="43.67593" lon="4.62572">
        <ele>7</ele>
        <time>2013-05-10T10:05:16Z</time>
      </trkpt>
      <trkpt lat="43.67595" lon="4.62571">
        <ele>7</ele>
        <time>2013-05-10T10:05:33Z</time>
      </trkpt>
      <trkpt lat="43.67593" lon="4.6257">
        <ele>12</ele>
        <time>2013-05-10T10:06:04Z</time>
      </trkpt>
      <trkpt lat="43.67592" lon="4.62571">
        <ele>15</ele>
        <time>2013-05-10T10:06:25Z</time>
      </trkpt>
      <trkpt lat="43.67589" lon="4.62572">
        <ele>21</ele>
        <time>2013-05-10T10:06:37Z</time>
      </trkpt>
      <trkpt lat="43.6759" lon="4.62571">
        <ele>25</ele>
        <time>2013-05-10T10:06:59Z</time>
      </trkpt>
      <trkpt lat="43.67594" lon="4.62569">
        <ele>30</ele>
        <time>2013-05-10T10:07:12Z</time>
      </trkpt>
      <trkpt lat="43.67593" lon="4.62571">
        <ele>25</ele>
        <time>2013-05-10T10:07:25Z</time>
      </trkpt>
      <trkpt lat="43.67589" lon="4.6257">
        <ele>21</ele>
        <time>2013-05-10T10:07:42Z</time>
      </trkpt>
      <trkpt lat="43.6759" lon="4.62569">
        <ele>21</ele>
        <time>2013-05-10T10:07:53Z</time>
      </trkpt>
      <trkpt lat="43.6759" lon="4.62569">
        <ele>21</ele>
        <time>2013-05-10T10:08:04Z</time>
      </trkpt>
      <trkpt lat="43.67592" lon="4.62567">
        <ele>33</ele>
        <time>2013-05-10T10:08:16Z</time>
      </trkpt>
      <trkpt lat="43.67594" lon="4.6257">
        <ele>51</ele>
        <time>2013-05-10T10:08:34Z</time>
      </trkpt>
      <trkpt lat="43.67589" lon="4.62617">
        <ele>52</ele>
        <time>2013-05-10T10:08:57Z</time>
      </trkpt>
      <trkpt lat="43.6759" lon="4.62623">
        <ele>48</ele>
        <time>2013-05-10T10:09:07Z</time>
      </trkpt>
      <trkpt lat="43.67596" lon="4.62618">
        <ele>38</ele>
        <time>2013-05-10T10:09:18Z</time>
      </trkpt>
      <trkpt lat="43.67599" lon="4.62624">
        <ele>32</ele>
        <time>2013-05-10T10:09:28Z</time>
      </trkpt>
      <trkpt lat="43.67603" lon="4.62629">
        <ele>31</ele>
        <time>2013-05-10T10:09:38Z</time>
      </trkpt>
      <trkpt lat="43.67607" lon="4.62622">
        <ele>30</ele>
        <time>2013-05-10T10:09:49Z</time>
      </trkpt>
      <trkpt lat="43.67615" lon="4.62619">
        <ele>31</ele>
        <time>2013-05-10T10:10:01Z</time>
      </trkpt>
      <trkpt lat="43.67624" lon="4.62616">
        <ele>24</ele>
        <time>2013-05-10T10:10:11Z</time>
      </trkpt>
      <trkpt lat="43.67631" lon="4.62613">
        <ele>22</ele>
        <time>2013-05-10T10:10:21Z</time>
      </trkpt>
      <trkpt lat="43.67635" lon="4.62618">
        <ele>25</ele>
        <time>2013-05-10T10:10:35Z</time>
      </trkpt>
      <trkpt lat="43.67643" lon="4.62616">
        <ele>24</ele>
        <time>2013-05-10T10:10:45Z</time>
      </trkpt>
      <trkpt lat="43.67641" lon="4.62615">
        <ele>21</ele>
        <time>2013-05-10T10:11:00Z</time>
      </trkpt>
      <trkpt lat="43.67637" lon="4.62618">
        <ele>21</ele>
        <time>2013-05-10T10:11:14Z</time>
      </trkpt>
      <trkpt lat="43.67657" lon="4.62598">
        <ele>21</ele>
        <time>2013-05-10T10:12:37Z</time>
      </trkpt>
      <trkpt lat="43.67659" lon="4.62604">
        <ele>21</ele>
        <time>2013-05-10T10:12:47Z</time>
      </trkpt>
      <trkpt lat="43.67657" lon="4.62589">
        <ele>14</ele>
        <time>2013-05-10T10:12:57Z</time>
      </trkpt>
      <trkpt lat="43.67658" lon="4.62586">
        <ele>18</ele>
        <time>2013-05-10T10:13:07Z</time>
      </trkpt>
      <trkpt lat="43.67658" lon="4.62575">
        <ele>24</ele>
        <time>2013-05-10T10:13:18Z</time>
      </trkpt>
      <trkpt lat="43.67665" lon="4.62581">
        <ele>28</ele>
        <time>2013-05-10T10:13:29Z</time>
      </trkpt>
      <trkpt lat="43.67671" lon="4.62586">
        <ele>32</ele>
        <time>2013-05-10T10:13:39Z</time>
      </trkpt>
      <trkpt lat="43.67675" lon="4.62594">
        <ele>34</ele>
        <time>2013-05-10T10:13:51Z</time>
      </trkpt>
      <trkpt lat="43.67683" lon="4.626">
        <ele>37</ele>
        <time>2013-05-10T10:14:01Z</time>
      </trkpt>
      <trkpt lat="43.67689" lon="4.62604">
        <ele>28</ele>
        <time>2013-05-10T10:14:12Z</time>
      </trkpt>
      <trkpt lat="43.67692" lon="4.62606">
        <ele>19</ele>
        <time>2013-05-10T10:14:25Z</time>
      </trkpt>
      <trkpt lat="43.67697" lon="4.62605">
        <ele>21</ele>
        <time>2013-05-10T10:14:35Z</time>
      </trkpt>
      <trkpt lat="43.67699" lon="4.62604">
        <ele>28</ele>
        <time>2013-05-10T10:14:48Z</time>
      </trkpt>
      <trkpt lat="43.67704" lon="4.62605">
        <ele>28</ele>
        <time>2013-05-10T10:14:58Z</time>
      </trkpt>
      <trkpt lat="43.67715" lon="4.62604">
        <ele>28</ele>
        <time>2013-05-10T10:15:09Z</time>
      </trkpt>
      <trkpt lat="43.67727" lon="4.62612">
        <ele>24</ele>
        <time>2013-05-10T10:15:20Z</time>
      </trkpt>
      <trkpt lat="43.67727" lon="4.62607">
        <ele>21</ele>
        <time>2013-05-10T10:15:30Z</time>
      </trkpt>
      <trkpt lat="43.67734" lon="4.626">
        <ele>15</ele>
        <time>2013-05-10T10:15:40Z</time>
      </trkpt>
      <trkpt lat="43.67737" lon="4.62595">
        <ele>9</ele>
        <time>2013-05-10T10:15:50Z</time>
      </trkpt>
      <trkpt lat="43.67736" lon="4.62591">
        <ele>16</ele>
        <time>2013-05-10T10:16:01Z</time>
      </trkpt>
      <trkpt lat="43.67741" lon="4.62593">
        <ele>25</ele>
        <time>2013-05-10T10:16:11Z</time>
      </trkpt>
      <trkpt lat="43.67744" lon="4.62585">
        <ele>18</ele>
        <time>2013-05-10T10:16:25Z</time>
      </trkpt>
      <trkpt lat="43.67745" lon="4.62579">
        <ele>15</ele>
        <time>2013-05-10T10:16:35Z</time>
      </trkpt>
      <trkpt lat="43.67739" lon="4.62575">
        <ele>19</ele>
        <time>2013-05-10T10:16:45Z</time>
      </trkpt>
      <trkpt lat="43.67745" lon="4.62568">
        <ele>31</ele>
        <time>2013-05-10T10:16:59Z</time>
      </trkpt>
      <trkpt lat="43.67739" lon="4.62553">
        <ele>26</ele>
        <time>2013-05-10T10:17:10Z</time>
      </trkpt>
      <trkpt lat="43.67741" lon="4.62546">
        <ele>19</ele>
        <time>2013-05-10T10:17:20Z</time>
      </trkpt>
      <trkpt lat="43.67743" lon="4.62547">
        <ele>30</ele>
        <time>2013-05-10T10:17:42Z</time>
      </trkpt>
      <trkpt lat="43.67748" lon="4.62548">
        <ele>40</ele>
        <time>2013-05-10T10:17:58Z</time>
      </trkpt>
      <trkpt lat="43.67751" lon="4.62545">
        <ele>39</ele>
        <time>2013-05-10T10:18:11Z</time>
      </trkpt>
      <trkpt lat="43.67757" lon="4.62546">
        <ele>38</ele>
        <time>2013-05-10T10:18:23Z</time>
      </trkpt>
      <trkpt lat="43.67759" lon="4.62547">
        <ele>36</ele>
        <time>2013-05-10T10:18:34Z</time>
      </trkpt>
      <trkpt lat="43.67759" lon="4.62552">
        <ele>25</ele>
        <time>2013-05-10T10:18:46Z</time>
      </trkpt>
      <trkpt lat="43.67761" lon="4.62561">
        <ele>21</ele>
        <time>2013-05-10T10:18:56Z</time>
      </trkpt>
      <trkpt lat="43.6776" lon="4.62573">
        <ele>23</ele>
        <time>2013-05-10T10:19:07Z</time>
      </trkpt>
      <trkpt lat="43.67762" lon="4.62574">
        <ele>28</ele>
        <time>2013-05-10T10:19:22Z</time>
      </trkpt>
      <trkpt lat="43.67761" lon="4.62579">
        <ele>28</ele>
        <time>2013-05-10T10:19:32Z</time>
      </trkpt>
      <trkpt lat="43.67764" lon="4.6259">
        <ele>33</ele>
        <time>2013-05-10T10:19:44Z</time>
      </trkpt>
      <trkpt lat="43.67778" lon="4.62598">
        <ele>33</ele>
        <time>2013-05-10T10:19:55Z</time>
      </trkpt>
      <trkpt lat="43.67776" lon="4.62605">
        <ele>31</ele>
        <time>2013-05-10T10:20:05Z</time>
      </trkpt>
      <trkpt lat="43.67781" lon="4.62606">
        <ele>28</ele>
        <time>2013-05-10T10:20:16Z</time>
      </trkpt>
      <trkpt lat="43.67792" lon="4.62605">
        <ele>35</ele>
        <time>2013-05-10T10:20:26Z</time>
      </trkpt>
      <trkpt lat="43.67798" lon="4.62607">
        <ele>41</ele>
        <time>2013-05-10T10:20:38Z</time>
      </trkpt>
      <trkpt lat="43.67803" lon="4.62602">
        <ele>34</ele>
        <time>2013-05-10T10:20:49Z</time>
      </trkpt>
      <trkpt lat="43.67812" lon="4.62604">
        <ele>27</ele>
        <time>2013-05-10T10:20:59Z</time>
      </trkpt>
      <trkpt lat="43.67817" lon="4.62604">
        <ele>19</ele>
        <time>2013-05-10T10:21:09Z</time>
      </trkpt>
      <trkpt lat="43.6782" lon="4.62603">
        <ele>19</ele>
        <time>2013-05-10T10:21:19Z</time>
      </trkpt>
      <trkpt lat="43.67823" lon="4.62603">
        <ele>19</ele>
        <time>2013-05-10T10:21:31Z</time>
      </trkpt>
      <trkpt lat="43.6782" lon="4.62606">
        <ele>19</ele>
        <time>2013-05-10T10:21:42Z</time>
      </trkpt>
      <trkpt lat="43.67819" lon="4.62609">
        <ele>18</ele>
        <time>2013-05-10T10:21:55Z</time>
      </trkpt>
      <trkpt lat="43.67818" lon="4.6261">
        <ele>28</ele>
        <time>2013-05-10T10:22:06Z</time>
      </trkpt>
      <trkpt lat="43.67824" lon="4.62604">
        <ele>30</ele>
        <time>2013-05-10T10:22:16Z</time>
      </trkpt>
      <trkpt lat="43.67825" lon="4.62606">
        <ele>30</ele>
        <time>2013-05-10T10:22:26Z</time>
      </trkpt>
      <trkpt lat="43.67819" lon="4.62608">
        <ele>30</ele>
        <time>2013-05-10T10:22:38Z</time>
      </trkpt>
      <trkpt lat="43.67818" lon="4.62608">
        <ele>20</ele>
        <time>2013-05-10T10:22:53Z</time>
      </trkpt>
      <trkpt lat="43.67819" lon="4.62597">
        <ele>9</ele>
        <time>2013-05-10T10:23:04Z</time>
      </trkpt>
      <trkpt lat="43.67818" lon="4.62595">
        <ele>8</ele>
        <time>2013-05-10T10:23:17Z</time>
      </trkpt>
      <trkpt lat="43.6782" lon="4.626">
        <ele>19</ele>
        <time>2013-05-10T10:23:30Z</time>
      </trkpt>
      <trkpt lat="43.67818" lon="4.62601">
        <ele>33</ele>
        <time>2013-05-10T10:23:43Z</time>
      </trkpt>
      <trkpt lat="43.67816" lon="4.62602">
        <ele>37</ele>
        <time>2013-05-10T10:24:00Z</time>
      </trkpt>
      <trkpt lat="43.6782" lon="4.62603">
        <ele>33</ele>
        <time>2013-05-10T10:24:10Z</time>
      </trkpt>
      <trkpt lat="43.67823" lon="4.62598">
        <ele>26</ele>
        <time>2013-05-10T10:24:20Z</time>
      </trkpt>
      <trkpt lat="43.6782" lon="4.62599">
        <ele>19</ele>
        <time>2013-05-10T10:24:33Z</time>
      </trkpt>
      <trkpt lat="43.67821" lon="4.6259">
        <ele>18</ele>
        <time>2013-05-10T10:24:43Z</time>
      </trkpt>
      <trkpt lat="43.67826" lon="4.62574">
        <ele>14</ele>
        <time>2013-05-10T10:24:54Z</time>
      </trkpt>
      <trkpt lat="43.67826" lon="4.62571">
        <ele>15</ele>
        <time>2013-05-10T10:25:04Z</time>
      </trkpt>
      <trkpt lat="43.67824" lon="4.62559">
        <ele>16</ele>
        <time>2013-05-10T10:25:14Z</time>
      </trkpt>
      <trkpt lat="43.67826" lon="4.62553">
        <ele>11</ele>
        <time>2013-05-10T10:25:27Z</time>
      </trkpt>
      <trkpt lat="43.67827" lon="4.62546">
        <ele>11</ele>
        <time>2013-05-10T10:25:37Z</time>
      </trkpt>
      <trkpt lat="43.67827" lon="4.6254">
        <ele>6</ele>
        <time>2013-05-10T10:25:50Z</time>
      </trkpt>
      <trkpt lat="43.67827" lon="4.6254">
        <ele>11</ele>
        <time>2013-05-10T10:26:02Z</time>
      </trkpt>
      <trkpt lat="43.67831" lon="4.6254">
        <ele>25</ele>
        <time>2013-05-10T10:26:12Z</time>
      </trkpt>
      <trkpt lat="43.67835" lon="4.62528">
        <ele>22</ele>
        <time>2013-05-10T10:26:22Z</time>
      </trkpt>
      <trkpt lat="43.67843" lon="4.62519">
        <ele>12</ele>
        <time>2013-05-10T10:26:33Z</time>
      </trkpt>
      <trkpt lat="43.6785" lon="4.62509">
        <ele>4</ele>
        <time>2013-05-10T10:26:43Z</time>
      </trkpt>
      <trkpt lat="43.67855" lon="4.62497">
        <ele>6.2</ele>
        <time>2013-05-10T10:26:53Z</time>
      </trkpt>
      <trkpt lat="43.67857" lon="4.62486">
        <ele>-9</ele>
        <time>2013-05-10T10:27:07Z</time>
      </trkpt>
      <trkpt lat="43.67857" lon="4.62478">
        <ele>6.1</ele>
        <time>2013-05-10T10:27:17Z</time>
      </trkpt>
      <trkpt lat="43.67851" lon="4.6247">
        <ele>11</ele>
        <time>2013-05-10T10:27:27Z</time>
      </trkpt>
      <trkpt lat="43.67851" lon="4.62448">
        <ele>9</ele>
        <time>2013-05-10T10:27:38Z</time>
      </trkpt>
      <trkpt lat="43.67847" lon="4.62444">
        <ele>16</ele>
        <time>2013-05-10T10:27:51Z</time>
      </trkpt>
      <trkpt lat="43.67849" lon="4.62433">
        <ele>17</ele>
        <time>2013-05-10T10:28:02Z</time>
      </trkpt>
      <trkpt lat="43.67852" lon="4.62429">
        <ele>10</ele>
        <time>2013-05-10T10:28:15Z</time>
      </trkpt>
      <trkpt lat="43.67855" lon="4.6243">
        <ele>10</ele>
        <time>2013-05-10T10:28:28Z</time>
      </trkpt>
      <trkpt lat="43.67855" lon="4.6243">
        <ele>10</ele>
        <time>2013-05-10T10:28:42Z</time>
      </trkpt>
      <trkpt lat="43.67855" lon="4.62428">
        <ele>10</ele>
        <time>2013-05-10T10:28:56Z</time>
      </trkpt>
      <trkpt lat="43.67854" lon="4.62427">
        <ele>10</ele>
        <time>2013-05-10T10:29:10Z</time>
      </trkpt>
      <trkpt lat="43.67855" lon="4.62425">
        <ele>10</ele>
        <time>2013-05-10T10:29:59Z</time>
      </trkpt>
      <trkpt lat="43.6785" lon="4.62416">
        <ele>10</ele>
        <time>2013-05-10T10:30:10Z</time>
      </trkpt>
      <trkpt lat="43.67846" lon="4.62408">
        <ele>10</ele>
        <time>2013-05-10T10:30:21Z</time>
      </trkpt>
      <trkpt lat="43.67841" lon="4.624">
        <ele>10</ele>
        <time>2013-05-10T10:30:31Z</time>
      </trkpt>
      <trkpt lat="43.67837" lon="4.62394">
        <ele>10</ele>
        <time>2013-05-10T10:30:43Z</time>
      </trkpt>
      <trkpt lat="43.67834" lon="4.62387">
        <ele>9</ele>
        <time>2013-05-10T10:30:54Z</time>
      </trkpt>
      <trkpt lat="43.67832" lon="4.62382">
        <ele>9</ele>
        <time>2013-05-10T10:31:04Z</time>
      </trkpt>
      <trkpt lat="43.67831" lon="4.62376">
        <ele>9</ele>
        <time>2013-05-10T10:31:16Z</time>
      </trkpt>
      <trkpt lat="43.67835" lon="4.62368">
        <ele>9</ele>
        <time>2013-05-10T10:31:27Z</time>
      </trkpt>
      <trkpt lat="43.67842" lon="4.6236">
        <ele>9</ele>
        <time>2013-05-10T10:31:37Z</time>
      </trkpt>
      <trkpt lat="43.6785" lon="4.62354">
        <ele>9</ele>
        <time>2013-05-10T10:31:47Z</time>
      </trkpt>
      <trkpt lat="43.67857" lon="4.62347">
        <ele>9</ele>
        <time>2013-05-10T10:31:57Z</time>
      </trkpt>
      <trkpt lat="43.67866" lon="4.62339">
        <ele>9</ele>
        <time>2013-05-10T10:32:08Z</time>
      </trkpt>
      <trkpt lat="43.67875" lon="4.62333">
        <ele>9</ele>
        <time>2013-05-10T10:32:18Z</time>
      </trkpt>
      <trkpt lat="43.67881" lon="4.62325">
        <ele>9</ele>
        <time>2013-05-10T10:32:28Z</time>
      </trkpt>
      <trkpt lat="43.67892" lon="4.62317">
        <ele>9</ele>
        <time>2013-05-10T10:32:39Z</time>
      </trkpt>
      <trkpt lat="43.67902" lon="4.62309">
        <ele>9</ele>
        <time>2013-05-10T10:32:50Z</time>
      </trkpt>
      <trkpt lat="43.67911" lon="4.62302">
        <ele>9</ele>
        <time>2013-05-10T10:33:00Z</time>
      </trkpt>
      <trkpt lat="43.6792" lon="4.62291">
        <ele>9</ele>
        <time>2013-05-10T10:33:11Z</time>
      </trkpt>
      <trkpt lat="43.67928" lon="4.62283">
        <ele>9</ele>
        <time>2013-05-10T10:33:22Z</time>
      </trkpt>
      <trkpt lat="43.67936" lon="4.62275">
        <ele>9</ele>
        <time>2013-05-10T10:33:32Z</time>
      </trkpt>
      <trkpt lat="43.67945" lon="4.62268">
        <ele>9</ele>
        <time>2013-05-10T10:33:42Z</time>
      </trkpt>
      <trkpt lat="43.67952" lon="4.62262">
        <ele>9</ele>
        <time>2013-05-10T10:33:52Z</time>
      </trkpt>
      <trkpt lat="43.67954" lon="4.62259">
        <ele>9</ele>
        <time>2013-05-10T10:34:02Z</time>
      </trkpt>
      <trkpt lat="43.67957" lon="4.62263">
        <ele>9</ele>
        <time>2013-05-10T10:34:14Z</time>
      </trkpt>
      <trkpt lat="43.67958" lon="4.62268">
        <ele>9</ele>
        <time>2013-05-10T10:34:24Z</time>
      </trkpt>
      <trkpt lat="43.67962" lon="4.62273">
        <ele>9</ele>
        <time>2013-05-10T10:34:35Z</time>
      </trkpt>
      <trkpt lat="43.67962" lon="4.62276">
        <ele>8</ele>
        <time>2013-05-10T10:34:47Z</time>
      </trkpt>
      <trkpt lat="43.67961" lon="4.62281">
        <ele>6</ele>
        <time>2013-05-10T10:34:58Z</time>
      </trkpt>
      <trkpt lat="43.67965" lon="4.62292">
        <ele>5</ele>
        <time>2013-05-10T10:35:08Z</time>
      </trkpt>
      <trkpt lat="43.67971" lon="4.62304">
        <ele>5</ele>
        <time>2013-05-10T10:35:18Z</time>
      </trkpt>
      <trkpt lat="43.67975" lon="4.62314">
        <ele>5</ele>
        <time>2013-05-10T10:35:28Z</time>
      </trkpt>
      <trkpt lat="43.67979" lon="4.62328">
        <ele>5</ele>
        <time>2013-05-10T10:35:39Z</time>
      </trkpt>
      <trkpt lat="43.67982" lon="4.62341">
        <ele>5</ele>
        <time>2013-05-10T10:35:50Z</time>
      </trkpt>
      <trkpt lat="43.67988" lon="4.62352">
        <ele>5</ele>
        <time>2013-05-10T10:36:00Z</time>
      </trkpt>
      <trkpt lat="43.67994" lon="4.62363">
        <ele>5</ele>
        <time>2013-05-10T10:36:10Z</time>
      </trkpt>
      <trkpt lat="43.67998" lon="4.62376">
        <ele>5</ele>
        <time>2013-05-10T10:36:20Z</time>
      </trkpt>
      <trkpt lat="43.68004" lon="4.6239">
        <ele>5</ele>
        <time>2013-05-10T10:36:30Z</time>
      </trkpt>
      <trkpt lat="43.68009" lon="4.62402">
        <ele>5</ele>
        <time>2013-05-10T10:36:40Z</time>
      </trkpt>
      <trkpt lat="43.68015" lon="4.62413">
        <ele>5</ele>
        <time>2013-05-10T10:36:50Z</time>
      </trkpt>
      <trkpt lat="43.68018" lon="4.62423">
        <ele>5</ele>
        <time>2013-05-10T10:37:01Z</time>
      </trkpt>
      <trkpt lat="43.68015" lon="4.62426">
        <ele>5</ele>
        <time>2013-05-10T10:37:20Z</time>
      </trkpt>
      <trkpt lat="43.68011" lon="4.6243">
        <ele>5</ele>
        <time>2013-05-10T10:37:30Z</time>
      </trkpt>
      <trkpt lat="43.68007" lon="4.62432">
        <ele>5</ele>
        <time>2013-05-10T10:37:44Z</time>
      </trkpt>
      <trkpt lat="43.68007" lon="4.62433">
        <ele>5</ele>
        <time>2013-05-10T10:37:54Z</time>
      </trkpt>
      <trkpt lat="43.68013" lon="4.62439">
        <ele>5</ele>
        <time>2013-05-10T10:38:07Z</time>
      </trkpt>
      <trkpt lat="43.68015" lon="4.62448">
        <ele>4</ele>
        <time>2013-05-10T10:38:17Z</time>
      </trkpt>
      <trkpt lat="43.68015" lon="4.62451">
        <ele>4</ele>
        <time>2013-05-10T10:38:27Z</time>
      </trkpt>
      <trkpt lat="43.68014" lon="4.62453">
        <ele>4</ele>
        <time>2013-05-10T10:38:39Z</time>
      </trkpt>
      <trkpt lat="43.68012" lon="4.62449">
        <ele>4</ele>
        <time>2013-05-10T10:38:51Z</time>
      </trkpt>
      <trkpt lat="43.68013" lon="4.62451">
        <ele>4</ele>
        <time>2013-05-10T10:39:35Z</time>
      </trkpt>
      <trkpt lat="43.68011" lon="4.6245">
        <ele>4</ele>
        <time>2013-05-10T10:39:46Z</time>
      </trkpt>
      <trkpt lat="43.68013" lon="4.62451">
        <ele>4</ele>
        <time>2013-05-10T10:40:11Z</time>
      </trkpt>
      <trkpt lat="43.68013" lon="4.62453">
        <ele>4</ele>
        <time>2013-05-10T10:40:29Z</time>
      </trkpt>
      <trkpt lat="43.68013" lon="4.62454">
        <ele>4</ele>
        <time>2013-05-10T10:41:21Z</time>
      </trkpt>
      <trkpt lat="43.68011" lon="4.62457">
        <ele>4</ele>
        <time>2013-05-10T10:41:34Z</time>
      </trkpt>
      <trkpt lat="43.68011" lon="4.62456">
        <ele>6</ele>
        <time>2013-05-10T10:41:48Z</time>
      </trkpt>
      <trkpt lat="43.68011" lon="4.62453">
        <ele>6</ele>
        <time>2013-05-10T10:41:59Z</time>
      </trkpt>
      <trkpt lat="43.68013" lon="4.62453">
        <ele>7</ele>
        <time>2013-05-10T10:43:18Z</time>
      </trkpt>
      <trkpt lat="43.68013" lon="4.62454">
        <ele>9</ele>
        <time>2013-05-10T10:43:36Z</time>
      </trkpt>
      <trkpt lat="43.68013" lon="4.62453">
        <ele>8</ele>
        <time>2013-05-10T10:44:10Z</time>
      </trkpt>
      <trkpt lat="43.68013" lon="4.62451">
        <ele>4</ele>
        <time>2013-05-10T10:44:51Z</time>
      </trkpt>
      <trkpt lat="43.68015" lon="4.62453">
        <ele>3</ele>
        <time>2013-05-10T10:45:18Z</time>
      </trkpt>
      <trkpt lat="43.68013" lon="4.62452">
        <ele>3</ele>
        <time>2013-05-10T10:45:46Z</time>
      </trkpt>
      <trkpt lat="43.68012" lon="4.62452">
        <ele>3</ele>
        <time>2013-05-10T10:46:13Z</time>
      </trkpt>
      <trkpt lat="43.68012" lon="4.6245">
        <ele>6</ele>
        <time>2013-05-10T10:48:22Z</time>
      </trkpt>
      <trkpt lat="43.68012" lon="4.62452">
        <ele>6</ele>
        <time>2013-05-10T10:48:48Z</time>
      </trkpt>
      <trkpt lat="43.68012" lon="4.62453">
        <ele>8</ele>
        <time>2013-05-10T10:49:19Z</time>
      </trkpt>
      <trkpt lat="43.68011" lon="4.62455">
        <ele>9</ele>
        <time>2013-05-10T10:49:34Z</time>
      </trkpt>
      <trkpt lat="43.68012" lon="4.62451">
        <ele>9</ele>
        <time>2013-05-10T10:50:31Z</time>
      </trkpt>
      <trkpt lat="43.68012" lon="4.62451">
        <ele>4</ele>
        <time>2013-05-10T10:51:07Z</time>
      </trkpt>
      <trkpt lat="43.68013" lon="4.62451">
        <ele>4</ele>
        <time>2013-05-10T10:51:57Z</time>
      </trkpt>
      <trkpt lat="43.68012" lon="4.62452">
        <ele>4</ele>
        <time>2013-05-10T10:53:02Z</time>
      </trkpt>
      <trkpt lat="43.68011" lon="4.6245">
        <ele>4</ele>
        <time>2013-05-10T10:53:16Z</time>
      </trkpt>
      <trkpt lat="43.6801" lon="4.62452">
        <ele>2.9</ele>
        <time>2013-05-10T10:53:39Z</time>
      </trkpt>
      <trkpt lat="43.68008" lon="4.6245">
        <ele>2.8</ele>
        <time>2013-05-10T10:54:30Z</time>
      </trkpt>
      <trkpt lat="43.6801" lon="4.62448">
        <ele>3</ele>
        <time>2013-05-10T10:55:07Z</time>
      </trkpt>
      <trkpt lat="43.6801" lon="4.62445">
        <ele>3.1</ele>
        <time>2013-05-10T10:55:20Z</time>
      </trkpt>
      <trkpt lat="43.68008" lon="4.62444">
        <ele>2.9</ele>
        <time>2013-05-10T10:55:31Z</time>
      </trkpt>
      <trkpt lat="43.6801" lon="4.62446">
        <ele>3</ele>
        <time>2013-05-10T10:55:41Z</time>
      </trkpt>
      <trkpt lat="43.6801" lon="4.62446">
        <ele>3</ele>
        <time>2013-05-10T10:56:01Z</time>
      </trkpt>
      <trkpt lat="43.68008" lon="4.62443">
        <ele>2.9</ele>
        <time>2013-05-10T10:56:11Z</time>
      </trkpt>
      <trkpt lat="43.68009" lon="4.62452">
        <ele>2.8</ele>
        <time>2013-05-10T10:56:21Z</time>
      </trkpt>
      <trkpt lat="43.6801" lon="4.6245">
        <ele>2.9</ele>
        <time>2013-05-10T10:56:32Z</time>
      </trkpt>
      <trkpt lat="43.6801" lon="4.62446">
        <ele>-3</ele>
        <time>2013-05-10T10:56:58Z</time>
      </trkpt>
      <trkpt lat="43.6801" lon="4.62447">
        <ele>-6</ele>
        <time>2013-05-10T10:57:14Z</time>
      </trkpt>
      <trkpt lat="43.68013" lon="4.62448">
        <ele>3.3</ele>
        <time>2013-05-10T10:57:25Z</time>
      </trkpt>
      <trkpt lat="43.68014" lon="4.62448">
        <ele>3.4</ele>
        <time>2013-05-10T10:57:36Z</time>
      </trkpt>
      <trkpt lat="43.68014" lon="4.62451">
        <ele>3.2</ele>
        <time>2013-05-10T10:57:52Z</time>
      </trkpt>
      <trkpt lat="43.68013" lon="4.62455">
        <ele>8</ele>
        <time>2013-05-10T10:58:17Z</time>
      </trkpt>
      <trkpt lat="43.68012" lon="4.62451">
        <ele>9</ele>
        <time>2013-05-10T10:58:32Z</time>
      </trkpt>
      <trkpt lat="43.68012" lon="4.62451">
        <ele>9</ele>
        <time>2013-05-10T10:58:49Z</time>
      </trkpt>
      <trkpt lat="43.68013" lon="4.62451">
        <ele>9</ele>
        <time>2013-05-10T10:59:05Z</time>
      </trkpt>
      <trkpt lat="43.68012" lon="4.62451">
        <ele>8</ele>
        <time>2013-05-10T10:59:45Z</time>
      </trkpt>
      <trkpt lat="43.68013" lon="4.62451">
        <ele>6</ele>
        <time>2013-05-10T10:59:57Z</time>
      </trkpt>
      <trkpt lat="43.68014" lon="4.62452">
        <ele>6</ele>
        <time>2013-05-10T11:00:14Z</time>
      </trkpt>
      <trkpt lat="43.68016" lon="4.62449">
        <ele>6</ele>
        <time>2013-05-10T11:00:24Z</time>
      </trkpt>
      <trkpt lat="43.68013" lon="4.62449">
        <ele>5</ele>
        <time>2013-05-10T11:00:37Z</time>
      </trkpt>
      <trkpt lat="43.68012" lon="4.6245">
        <ele>5</ele>
        <time>2013-05-10T11:00:47Z</time>
      </trkpt>
      <trkpt lat="43.68013" lon="4.62449">
        <ele>5</ele>
        <time>2013-05-10T11:00:58Z</time>
      </trkpt>
      <trkpt lat="43.68015" lon="4.62447">
        <ele>3.5</ele>
        <time>2013-05-10T11:01:15Z</time>
      </trkpt>
      <trkpt lat="43.68011" lon="4.62452">
        <ele>1</ele>
        <time>2013-05-10T11:02:00Z</time>
      </trkpt>
      <trkpt lat="43.68013" lon="4.62451">
        <ele>3</ele>
        <time>2013-05-10T11:02:48Z</time>
      </trkpt>
      <trkpt lat="43.68014" lon="4.62451">
        <ele>3</ele>
        <time>2013-05-10T11:03:03Z</time>
      </trkpt>
      <trkpt lat="43.68015" lon="4.62453">
        <ele>3</ele>
        <time>2013-05-10T11:03:17Z</time>
      </trkpt>
      <trkpt lat="43.68014" lon="4.62451">
        <ele>3</ele>
        <time>2013-05-10T11:03:33Z</time>
      </trkpt>
      <trkpt lat="43.68013" lon="4.62452">
        <ele>9</ele>
        <time>2013-05-10T11:04:29Z</time>
      </trkpt>
      <trkpt lat="43.68011" lon="4.62452">
        <ele>9</ele>
        <time>2013-05-10T11:05:04Z</time>
      </trkpt>
      <trkpt lat="43.68012" lon="4.62453">
        <ele>7</ele>
        <time>2013-05-10T11:05:29Z</time>
      </trkpt>
      <trkpt lat="43.68013" lon="4.62454">
        <ele>7</ele>
        <time>2013-05-10T11:05:48Z</time>
      </trkpt>
      <trkpt lat="43.68013" lon="4.62453">
        <ele>7</ele>
        <time>2013-05-10T11:06:05Z</time>
      </trkpt>
      <trkpt lat="43.68015" lon="4.62451">
        <ele>7</ele>
        <time>2013-05-10T11:06:17Z</time>
      </trkpt>
      <trkpt lat="43.68015" lon="4.62452">
        <ele>7</ele>
        <time>2013-05-10T11:06:48Z</time>
      </trkpt>
      <trkpt lat="43.68014" lon="4.62451">
        <ele>7</ele>
        <time>2013-05-10T11:07:06Z</time>
      </trkpt>
      <trkpt lat="43.68014" lon="4.6245">
        <ele>7</ele>
        <time>2013-05-10T11:07:31Z</time>
      </trkpt>
      <trkpt lat="43.68012" lon="4.62449">
        <ele>7</ele>
        <time>2013-05-10T11:07:55Z</time>
      </trkpt>
      <trkpt lat="43.68011" lon="4.6245">
        <ele>7</ele>
        <time>2013-05-10T11:08:05Z</time>
      </trkpt>
      <trkpt lat="43.68009" lon="4.62453">
        <ele>7</ele>
        <time>2013-05-10T11:08:17Z</time>
      </trkpt>
      <trkpt lat="43.68007" lon="4.62457">
        <ele>9</ele>
        <time>2013-05-10T11:08:31Z</time>
      </trkpt>
      <trkpt lat="43.68008" lon="4.62454">
        <ele>10</ele>
        <time>2013-05-10T11:08:41Z</time>
      </trkpt>
      <trkpt lat="43.68008" lon="4.62454">
        <ele>10</ele>
        <time>2013-05-10T11:08:52Z</time>
      </trkpt>
      <trkpt lat="43.68009" lon="4.62452">
        <ele>5</ele>
        <time>2013-05-10T11:09:08Z</time>
      </trkpt>
      <trkpt lat="43.68009" lon="4.62456">
        <ele>2.7</ele>
        <time>2013-05-10T11:09:22Z</time>
      </trkpt>
      <trkpt lat="43.68009" lon="4.62454">
        <ele>2.7</ele>
        <time>2013-05-10T11:09:34Z</time>
      </trkpt>
      <trkpt lat="43.68009" lon="4.62449">
        <ele>6</ele>
        <time>2013-05-10T11:10:05Z</time>
      </trkpt>
      <trkpt lat="43.68011" lon="4.62452">
        <ele>6</ele>
        <time>2013-05-10T11:10:26Z</time>
      </trkpt>
      <trkpt lat="43.68012" lon="4.62452">
        <ele>6</ele>
        <time>2013-05-10T11:11:16Z</time>
      </trkpt>
      <trkpt lat="43.68013" lon="4.62452">
        <ele>6</ele>
        <time>2013-05-10T11:11:26Z</time>
      </trkpt>
      <trkpt lat="43.68016" lon="4.62453">
        <ele>5</ele>
        <time>2013-05-10T11:11:48Z</time>
      </trkpt>
      <trkpt lat="43.68017" lon="4.6245">
        <ele>1</ele>
        <time>2013-05-10T11:12:05Z</time>
      </trkpt>
      <trkpt lat="43.68018" lon="4.62453">
        <ele>3.6</ele>
        <time>2013-05-10T11:12:18Z</time>
      </trkpt>
      <trkpt lat="43.68018" lon="4.62452">
        <ele>3.6</ele>
        <time>2013-05-10T11:12:30Z</time>
      </trkpt>
      <trkpt lat="43.68016" lon="4.62454">
        <ele>-1</ele>
        <time>2013-05-10T11:12:41Z</time>
      </trkpt>
      <trkpt lat="43.68013" lon="4.62448">
        <ele>3.2</ele>
        <time>2013-05-10T11:12:51Z</time>
      </trkpt>
      <trkpt lat="43.68012" lon="4.6245">
        <ele>3.2</ele>
        <time>2013-05-10T11:13:02Z</time>
      </trkpt>
      <trkpt lat="43.68012" lon="4.62453">
        <ele>3</ele>
        <time>2013-05-10T11:13:26Z</time>
      </trkpt>
      <trkpt lat="43.68012" lon="4.62453">
        <ele>4</ele>
        <time>2013-05-10T11:13:53Z</time>
      </trkpt>
      <trkpt lat="43.68011" lon="4.62452">
        <ele>2.9</ele>
        <time>2013-05-10T11:14:25Z</time>
      </trkpt>
      <trkpt lat="43.68012" lon="4.62451">
        <ele>3.1</ele>
        <time>2013-05-10T11:14:58Z</time>
      </trkpt>
      <trkpt lat="43.68011" lon="4.62452">
        <ele>3</ele>
        <time>2013-05-10T11:15:11Z</time>
      </trkpt>
      <trkpt lat="43.68012" lon="4.62452">
        <ele>3.1</ele>
        <time>2013-05-10T11:15:44Z</time>
      </trkpt>
      <trkpt lat="43.68013" lon="4.62449">
        <ele>3.2</ele>
        <time>2013-05-10T11:15:56Z</time>
      </trkpt>
      <trkpt lat="43.68013" lon="4.62447">
        <ele>3.3</ele>
        <time>2013-05-10T11:16:14Z</time>
      </trkpt>
      <trkpt lat="43.68012" lon="4.62449">
        <ele>3.2</ele>
        <time>2013-05-10T11:16:32Z</time>
      </trkpt>
      <trkpt lat="43.68014" lon="4.62449">
        <ele>3.3</ele>
        <time>2013-05-10T11:16:52Z</time>
      </trkpt>
      <trkpt lat="43.68013" lon="4.62451">
        <ele>3.2</ele>
        <time>2013-05-10T11:17:11Z</time>
      </trkpt>
      <trkpt lat="43.68011" lon="4.62451">
        <ele>3</ele>
        <time>2013-05-10T11:17:38Z</time>
      </trkpt>
      <trkpt lat="43.68013" lon="4.62452">
        <ele>3.2</ele>
        <time>2013-05-10T11:18:19Z</time>
      </trkpt>
      <trkpt lat="43.68017" lon="4.62452">
        <ele>3.5</ele>
        <time>2013-05-10T11:18:39Z</time>
      </trkpt>
      <trkpt lat="43.68015" lon="4.6245">
        <ele>3.4</ele>
        <time>2013-05-10T11:18:51Z</time>
      </trkpt>
      <trkpt lat="43.68017" lon="4.6245">
        <ele>3.6</ele>
        <time>2013-05-10T11:19:07Z</time>
      </trkpt>
      <trkpt lat="43.68018" lon="4.6245">
        <ele>3</ele>
        <time>2013-05-10T11:19:22Z</time>
      </trkpt>
      <trkpt lat="43.68015" lon="4.62448">
        <ele>5</ele>
        <time>2013-05-10T11:20:00Z</time>
      </trkpt>
      <trkpt lat="43.68017" lon="4.62449">
        <ele>5</ele>
        <time>2013-05-10T11:20:18Z</time>
      </trkpt>
      <trkpt lat="43.68015" lon="4.62449">
        <ele>5</ele>
        <time>2013-05-10T11:20:31Z</time>
      </trkpt>
      <trkpt lat="43.68015" lon="4.62449">
        <ele>5</ele>
        <time>2013-05-10T11:20:56Z</time>
      </trkpt>
      <trkpt lat="43.68014" lon="4.62449">
        <ele>5</ele>
        <time>2013-05-10T11:21:10Z</time>
      </trkpt>
      <trkpt lat="43.68011" lon="4.6245">
        <ele>4</ele>
        <time>2013-05-10T11:21:30Z</time>
      </trkpt>
      <trkpt lat="43.6801" lon="4.6245">
        <ele>1</ele>
        <time>2013-05-10T11:21:54Z</time>
      </trkpt>
      <trkpt lat="43.6801" lon="4.62451">
        <ele>2.9</ele>
        <time>2013-05-10T11:22:10Z</time>
      </trkpt>
      <trkpt lat="43.68012" lon="4.62451">
        <ele>3.1</ele>
        <time>2013-05-10T11:22:41Z</time>
      </trkpt>
      <trkpt lat="43.68013" lon="4.6245">
        <ele>3.3</ele>
        <time>2013-05-10T11:22:53Z</time>
      </trkpt>
      <trkpt lat="43.68014" lon="4.62448">
        <ele>3.3</ele>
        <time>2013-05-10T11:23:04Z</time>
      </trkpt>
      <trkpt lat="43.68013" lon="4.62447">
        <ele>3.4</ele>
        <time>2013-05-10T11:24:05Z</time>
      </trkpt>
      <trkpt lat="43.68013" lon="4.62448">
        <ele>3.2</ele>
        <time>2013-05-10T11:24:35Z</time>
      </trkpt>
      <trkpt lat="43.68012" lon="4.6245">
        <ele>3.1</ele>
        <time>2013-05-10T11:24:55Z</time>
      </trkpt>
      <trkpt lat="43.68011" lon="4.62451">
        <ele>3</ele>
        <time>2013-05-10T11:25:09Z</time>
      </trkpt>
      <trkpt lat="43.6801" lon="4.62449">
        <ele>3</ele>
        <time>2013-05-10T11:25:23Z</time>
      </trkpt>
      <trkpt lat="43.68009" lon="4.62449">
        <ele>10</ele>
        <time>2013-05-10T11:25:35Z</time>
      </trkpt>
      <trkpt lat="43.68011" lon="4.6245">
        <ele>7</ele>
        <time>2013-05-10T11:25:49Z</time>
      </trkpt>
      <trkpt lat="43.68012" lon="4.6245">
        <ele>3</ele>
        <time>2013-05-10T11:26:08Z</time>
      </trkpt>
      <trkpt lat="43.68012" lon="4.62449">
        <ele>2</ele>
        <time>2013-05-10T11:27:47Z</time>
      </trkpt>
      <trkpt lat="43.68011" lon="4.6245">
        <ele>2</ele>
        <time>2013-05-10T11:28:17Z</time>
      </trkpt>
      <trkpt lat="43.68012" lon="4.6245">
        <ele>2</ele>
        <time>2013-05-10T11:29:00Z</time>
      </trkpt>
      <trkpt lat="43.68012" lon="4.62451">
        <ele>3.1</ele>
        <time>2013-05-10T11:29:39Z</time>
      </trkpt>
      <trkpt lat="43.68012" lon="4.62453">
        <ele>3</ele>
        <time>2013-05-10T11:29:59Z</time>
      </trkpt>
      <trkpt lat="43.68014" lon="4.62457">
        <ele>3.1</ele>
        <time>2013-05-10T11:30:11Z</time>
      </trkpt>
      <trkpt lat="43.68015" lon="4.62455">
        <ele>3.2</ele>
        <time>2013-05-10T11:30:40Z</time>
      </trkpt>
      <trkpt lat="43.68014" lon="4.62454">
        <ele>3.2</ele>
        <time>2013-05-10T11:30:53Z</time>
      </trkpt>
      <trkpt lat="43.68013" lon="4.62455">
        <ele>3</ele>
        <time>2013-05-10T11:31:06Z</time>
      </trkpt>
      <trkpt lat="43.68012" lon="4.62457">
        <ele>2.9</ele>
        <time>2013-05-10T11:31:41Z</time>
      </trkpt>
      <trkpt lat="43.6801" lon="4.6246">
        <ele>2.7</ele>
        <time>2013-05-10T11:32:35Z</time>
      </trkpt>
      <trkpt lat="43.68011" lon="4.62458">
        <ele>1</ele>
        <time>2013-05-10T11:33:10Z</time>
      </trkpt>
      <trkpt lat="43.68012" lon="4.62457">
        <ele>3</ele>
        <time>2013-05-10T11:33:36Z</time>
      </trkpt>
      <trkpt lat="43.68013" lon="4.62455">
        <ele>3</ele>
        <time>2013-05-10T11:34:07Z</time>
      </trkpt>
      <trkpt lat="43.68014" lon="4.62455">
        <ele>3</ele>
        <time>2013-05-10T11:34:33Z</time>
      </trkpt>
      <trkpt lat="43.68013" lon="4.62456">
        <ele>3</ele>
        <time>2013-05-10T11:35:15Z</time>
      </trkpt>
      <trkpt lat="43.68013" lon="4.62458">
        <ele>2.9</ele>
        <time>2013-05-10T11:36:17Z</time>
      </trkpt>
      <trkpt lat="43.68011" lon="4.6246">
        <ele>2.8</ele>
        <time>2013-05-10T11:36:28Z</time>
      </trkpt>
      <trkpt lat="43.68011" lon="4.6246">
        <ele>2.8</ele>
        <time>2013-05-10T11:37:20Z</time>
      </trkpt>
      <trkpt lat="43.68013" lon="4.62461">
        <ele>2.8</ele>
        <time>2013-05-10T11:37:34Z</time>
      </trkpt>
      <trkpt lat="43.68013" lon="4.62458">
        <ele>3</ele>
        <time>2013-05-10T11:37:53Z</time>
      </trkpt>
      <trkpt lat="43.68015" lon="4.62458">
        <ele>1</ele>
        <time>2013-05-10T11:38:09Z</time>
      </trkpt>
      <trkpt lat="43.68015" lon="4.62456">
        <ele>2</ele>
        <time>2013-05-10T11:38:28Z</time>
      </trkpt>
      <trkpt lat="43.68016" lon="4.62458">
        <ele>2</ele>
        <time>2013-05-10T11:38:44Z</time>
      </trkpt>
      <trkpt lat="43.68015" lon="4.62456">
        <ele>2</ele>
        <time>2013-05-10T11:38:55Z</time>
      </trkpt>
      <trkpt lat="43.68013" lon="4.6245">
        <ele>2</ele>
        <time>2013-05-10T11:39:05Z</time>
      </trkpt>
      <trkpt lat="43.68012" lon="4.62448">
        <ele>2</ele>
        <time>2013-05-10T11:39:17Z</time>
      </trkpt>
      <trkpt lat="43.68013" lon="4.6245">
        <ele>2</ele>
        <time>2013-05-10T11:39:41Z</time>
      </trkpt>
      <trkpt lat="43.68013" lon="4.62451">
        <ele>2</ele>
        <time>2013-05-10T11:40:12Z</time>
      </trkpt>
      <trkpt lat="43.68014" lon="4.6245">
        <ele>2</ele>
        <time>2013-05-10T11:40:51Z</time>
      </trkpt>
      <trkpt lat="43.68015" lon="4.62449">
        <ele>2</ele>
        <time>2013-05-10T11:41:09Z</time>
      </trkpt>
      <trkpt lat="43.68016" lon="4.62451">
        <ele>2</ele>
        <time>2013-05-10T11:41:54Z</time>
      </trkpt>
      <trkpt lat="43.68015" lon="4.62452">
        <ele>3</ele>
        <time>2013-05-10T11:42:17Z</time>
      </trkpt>
      <trkpt lat="43.68016" lon="4.62452">
        <ele>4</ele>
        <time>2013-05-10T11:42:57Z</time>
      </trkpt>
      <trkpt lat="43.68019" lon="4.62451">
        <ele>4</ele>
        <time>2013-05-10T11:43:08Z</time>
      </trkpt>
      <trkpt lat="43.68019" lon="4.6245">
        <ele>4</ele>
        <time>2013-05-10T11:43:32Z</time>
      </trkpt>
      <trkpt lat="43.68018" lon="4.6245">
        <ele>4</ele>
        <time>2013-05-10T11:43:44Z</time>
      </trkpt>
      <trkpt lat="43.68017" lon="4.62449">
        <ele>4</ele>
        <time>2013-05-10T11:43:57Z</time>
      </trkpt>
      <trkpt lat="43.68016" lon="4.62449">
        <ele>4</ele>
        <time>2013-05-10T11:44:12Z</time>
      </trkpt>
      <trkpt lat="43.68013" lon="4.6245">
        <ele>4</ele>
        <time>2013-05-10T11:44:24Z</time>
      </trkpt>
      <trkpt lat="43.68012" lon="4.62449">
        <ele>4</ele>
        <time>2013-05-10T11:44:53Z</time>
      </trkpt>
      <trkpt lat="43.68006" lon="4.62447">
        <ele>10</ele>
        <time>2013-05-10T11:45:05Z</time>
      </trkpt>
      <trkpt lat="43.68005" lon="4.62447">
        <ele>18</ele>
        <time>2013-05-10T11:45:20Z</time>
      </trkpt>
      <trkpt lat="43.68006" lon="4.62446">
        <ele>14</ele>
        <time>2013-05-10T11:45:30Z</time>
      </trkpt>
      <trkpt lat="43.68008" lon="4.62446">
        <ele>9</ele>
        <time>2013-05-10T11:45:40Z</time>
      </trkpt>
      <trkpt lat="43.68009" lon="4.62448">
        <ele>5</ele>
        <time>2013-05-10T11:45:55Z</time>
      </trkpt>
      <trkpt lat="43.68008" lon="4.62446">
        <ele>5</ele>
        <time>2013-05-10T11:46:06Z</time>
      </trkpt>
      <trkpt lat="43.68009" lon="4.62448">
        <ele>2</ele>
        <time>2013-05-10T11:46:24Z</time>
      </trkpt>
      <trkpt lat="43.68009" lon="4.62449">
        <ele>2</ele>
        <time>2013-05-10T11:46:39Z</time>
      </trkpt>
      <trkpt lat="43.6801" lon="4.62449">
        <ele>6</ele>
        <time>2013-05-10T11:46:59Z</time>
      </trkpt>
      <trkpt lat="43.6801" lon="4.62446">
        <ele>6</ele>
        <time>2013-05-10T11:47:19Z</time>
      </trkpt>
      <trkpt lat="43.68011" lon="4.62447">
        <ele>7</ele>
        <time>2013-05-10T11:47:42Z</time>
      </trkpt>
      <trkpt lat="43.68012" lon="4.62448">
        <ele>4</ele>
        <time>2013-05-10T11:47:56Z</time>
      </trkpt>
      <trkpt lat="43.6801" lon="4.62444">
        <ele>9</ele>
        <time>2013-05-10T11:48:09Z</time>
      </trkpt>
      <trkpt lat="43.68009" lon="4.6244">
        <ele>13</ele>
        <time>2013-05-10T11:48:25Z</time>
      </trkpt>
      <trkpt lat="43.6801" lon="4.62435">
        <ele>13</ele>
        <time>2013-05-10T11:48:39Z</time>
      </trkpt>
      <trkpt lat="43.68008" lon="4.62431">
        <ele>4</ele>
        <time>2013-05-10T11:48:53Z</time>
      </trkpt>
      <trkpt lat="43.68004" lon="4.62428">
        <ele>13</ele>
        <time>2013-05-10T11:49:05Z</time>
      </trkpt>
      <trkpt lat="43.68001" lon="4.62427">
        <ele>33</ele>
        <time>2013-05-10T11:49:20Z</time>
      </trkpt>
      <trkpt lat="43.68" lon="4.62433">
        <ele>43</ele>
        <time>2013-05-10T11:49:33Z</time>
      </trkpt>
      <trkpt lat="43.68002" lon="4.62436">
        <ele>43</ele>
        <time>2013-05-10T11:49:45Z</time>
      </trkpt>
      <trkpt lat="43.68006" lon="4.62437">
        <ele>29</ele>
        <time>2013-05-10T11:50:01Z</time>
      </trkpt>
      <trkpt lat="43.68007" lon="4.6244">
        <ele>25</ele>
        <time>2013-05-10T11:50:11Z</time>
      </trkpt>
      <trkpt lat="43.68005" lon="4.62443">
        <ele>25</ele>
        <time>2013-05-10T11:50:25Z</time>
      </trkpt>
      <trkpt lat="43.68004" lon="4.62444">
        <ele>25</ele>
        <time>2013-05-10T11:50:37Z</time>
      </trkpt>
      <trkpt lat="43.68003" lon="4.62446">
        <ele>25</ele>
        <time>2013-05-10T11:51:06Z</time>
      </trkpt>
      <trkpt lat="43.68003" lon="4.62444">
        <ele>27</ele>
        <time>2013-05-10T11:51:24Z</time>
      </trkpt>
      <trkpt lat="43.68002" lon="4.62447">
        <ele>30</ele>
        <time>2013-05-10T11:51:35Z</time>
      </trkpt>
      <trkpt lat="43.68008" lon="4.62452">
        <ele>20</ele>
        <time>2013-05-10T11:51:46Z</time>
      </trkpt>
      <trkpt lat="43.68008" lon="4.62452">
        <ele>12</ele>
        <time>2013-05-10T11:51:56Z</time>
      </trkpt>
      <trkpt lat="43.68009" lon="4.62451">
        <ele>10</ele>
        <time>2013-05-10T11:52:06Z</time>
      </trkpt>
      <trkpt lat="43.68011" lon="4.6245">
        <ele>10</ele>
        <time>2013-05-10T11:52:17Z</time>
      </trkpt>
      <trkpt lat="43.68013" lon="4.62448">
        <ele>6</ele>
        <time>2013-05-10T11:52:39Z</time>
      </trkpt>
      <trkpt lat="43.68013" lon="4.62446">
        <ele>6</ele>
        <time>2013-05-10T11:53:40Z</time>
      </trkpt>
      <trkpt lat="43.68012" lon="4.62445">
        <ele>6</ele>
        <time>2013-05-10T11:54:20Z</time>
      </trkpt>
      <trkpt lat="43.68012" lon="4.62448">
        <ele>8</ele>
        <time>2013-05-10T11:55:12Z</time>
      </trkpt>
      <trkpt lat="43.68011" lon="4.62447">
        <ele>8</ele>
        <time>2013-05-10T11:55:41Z</time>
      </trkpt>
      <trkpt lat="43.68012" lon="4.62447">
        <ele>5</ele>
        <time>2013-05-10T11:56:05Z</time>
      </trkpt>
      <trkpt lat="43.68013" lon="4.62445">
        <ele>4</ele>
        <time>2013-05-10T11:56:21Z</time>
      </trkpt>
      <trkpt lat="43.68013" lon="4.62443">
        <ele>4</ele>
        <time>2013-05-10T11:56:38Z</time>
      </trkpt>
      <trkpt lat="43.68015" lon="4.6244">
        <ele>2</ele>
        <time>2013-05-10T11:56:53Z</time>
      </trkpt>
      <trkpt lat="43.68015" lon="4.6244">
        <ele>2</ele>
        <time>2013-05-10T11:57:04Z</time>
      </trkpt>
      <trkpt lat="43.68013" lon="4.62444">
        <ele>3</ele>
        <time>2013-05-10T11:57:18Z</time>
      </trkpt>
      <trkpt lat="43.68014" lon="4.62443">
        <ele>5</ele>
        <time>2013-05-10T11:57:51Z</time>
      </trkpt>
      <trkpt lat="43.68013" lon="4.62445">
        <ele>5</ele>
        <time>2013-05-10T11:58:40Z</time>
      </trkpt>
      <trkpt lat="43.68012" lon="4.62446">
        <ele>5</ele>
        <time>2013-05-10T11:58:59Z</time>
      </trkpt>
      <trkpt lat="43.68011" lon="4.6245">
        <ele>5</ele>
        <time>2013-05-10T12:00:33Z</time>
      </trkpt>
      <trkpt lat="43.68013" lon="4.62449">
        <ele>5</ele>
        <time>2013-05-10T12:00:59Z</time>
      </trkpt>
      <trkpt lat="43.68014" lon="4.62448">
        <ele>5</ele>
        <time>2013-05-10T12:01:21Z</time>
      </trkpt>
      <trkpt lat="43.68015" lon="4.62447">
        <ele>5</ele>
        <time>2013-05-10T12:01:46Z</time>
      </trkpt>
      <trkpt lat="43.68013" lon="4.62445">
        <ele>5</ele>
        <time>2013-05-10T12:01:59Z</time>
      </trkpt>
      <trkpt lat="43.68012" lon="4.62444">
        <ele>5</ele>
        <time>2013-05-10T12:03:15Z</time>
      </trkpt>
      <trkpt lat="43.68012" lon="4.62445">
        <ele>7</ele>
        <time>2013-05-10T12:03:53Z</time>
      </trkpt>
      <trkpt lat="43.68013" lon="4.62447">
        <ele>7</ele>
        <time>2013-05-10T12:04:23Z</time>
      </trkpt>
      <trkpt lat="43.68014" lon="4.62448">
        <ele>7</ele>
        <time>2013-05-10T12:04:52Z</time>
      </trkpt>
      <trkpt lat="43.68013" lon="4.62447">
        <ele>7</ele>
        <time>2013-05-10T12:05:48Z</time>
      </trkpt>
      <trkpt lat="43.68013" lon="4.62446">
        <ele>7</ele>
        <time>2013-05-10T12:06:11Z</time>
      </trkpt>
      <trkpt lat="43.68013" lon="4.62444">
        <ele>7</ele>
        <time>2013-05-10T12:06:23Z</time>
      </trkpt>
      <trkpt lat="43.68012" lon="4.62443">
        <ele>7</ele>
        <time>2013-05-10T12:06:37Z</time>
      </trkpt>
      <trkpt lat="43.68012" lon="4.62441">
        <ele>8</ele>
        <time>2013-05-10T12:06:48Z</time>
      </trkpt>
      <trkpt lat="43.68011" lon="4.6244">
        <ele>8</ele>
        <time>2013-05-10T12:07:04Z</time>
      </trkpt>
      <trkpt lat="43.6801" lon="4.6244">
        <ele>10</ele>
        <time>2013-05-10T12:07:22Z</time>
      </trkpt>
      <trkpt lat="43.68011" lon="4.6244">
        <ele>12</ele>
        <time>2013-05-10T12:07:44Z</time>
      </trkpt>
      <trkpt lat="43.68011" lon="4.62443">
        <ele>12</ele>
        <time>2013-05-10T12:07:54Z</time>
      </trkpt>
      <trkpt lat="43.68011" lon="4.62446">
        <ele>11</ele>
        <time>2013-05-10T12:08:09Z</time>
      </trkpt>
      <trkpt lat="43.6801" lon="4.62447">
        <ele>10</ele>
        <time>2013-05-10T12:08:25Z</time>
      </trkpt>
      <trkpt lat="43.68011" lon="4.62447">
        <ele>10</ele>
        <time>2013-05-10T12:08:40Z</time>
      </trkpt>
      <trkpt lat="43.68012" lon="4.62446">
        <ele>10</ele>
        <time>2013-05-10T12:08:54Z</time>
      </trkpt>
      <trkpt lat="43.68012" lon="4.62445">
        <ele>10</ele>
        <time>2013-05-10T12:09:20Z</time>
      </trkpt>
      <trkpt lat="43.68013" lon="4.62444">
        <ele>10</ele>
        <time>2013-05-10T12:09:35Z</time>
      </trkpt>
      <trkpt lat="43.68012" lon="4.62443">
        <ele>10</ele>
        <time>2013-05-10T12:10:06Z</time>
      </trkpt>
      <trkpt lat="43.68011" lon="4.62442">
        <ele>10</ele>
        <time>2013-05-10T12:10:43Z</time>
      </trkpt>
      <trkpt lat="43.68012" lon="4.62439">
        <ele>11</ele>
        <time>2013-05-10T12:10:54Z</time>
      </trkpt>
      <trkpt lat="43.6801" lon="4.62439">
        <ele>14</ele>
        <time>2013-05-10T12:11:05Z</time>
      </trkpt>
      <trkpt lat="43.6801" lon="4.62442">
        <ele>14</ele>
        <time>2013-05-10T12:11:18Z</time>
      </trkpt>
      <trkpt lat="43.6801" lon="4.62444">
        <ele>14</ele>
        <time>2013-05-10T12:11:29Z</time>
      </trkpt>
      <trkpt lat="43.68011" lon="4.62444">
        <ele>14</ele>
        <time>2013-05-10T12:11:41Z</time>
      </trkpt>
      <trkpt lat="43.68013" lon="4.62444">
        <ele>13</ele>
        <time>2013-05-10T12:11:55Z</time>
      </trkpt>
      <trkpt lat="43.68013" lon="4.62446">
        <ele>11</ele>
        <time>2013-05-10T12:12:21Z</time>
      </trkpt>
      <trkpt lat="43.68013" lon="4.62447">
        <ele>9</ele>
        <time>2013-05-10T12:12:51Z</time>
      </trkpt>
      <trkpt lat="43.68014" lon="4.62449">
        <ele>7</ele>
        <time>2013-05-10T12:13:15Z</time>
      </trkpt>
      <trkpt lat="43.68013" lon="4.62447">
        <ele>7</ele>
        <time>2013-05-10T12:13:57Z</time>
      </trkpt>
      <trkpt lat="43.68013" lon="4.62447">
        <ele>7</ele>
        <time>2013-05-10T12:14:16Z</time>
      </trkpt>
      <trkpt lat="43.68012" lon="4.62446">
        <ele>7</ele>
        <time>2013-05-10T12:14:30Z</time>
      </trkpt>
      <trkpt lat="43.68012" lon="4.62448">
        <ele>7</ele>
        <time>2013-05-10T12:14:55Z</time>
      </trkpt>
      <trkpt lat="43.68013" lon="4.62446">
        <ele>7</ele>
        <time>2013-05-10T12:15:35Z</time>
      </trkpt>
      <trkpt lat="43.68014" lon="4.62448">
        <ele>7</ele>
        <time>2013-05-10T12:16:00Z</time>
      </trkpt>
      <trkpt lat="43.68013" lon="4.62449">
        <ele>7</ele>
        <time>2013-05-10T12:16:25Z</time>
      </trkpt>
      <trkpt lat="43.68013" lon="4.62447">
        <ele>7</ele>
        <time>2013-05-10T12:16:54Z</time>
      </trkpt>
      <trkpt lat="43.68015" lon="4.62448">
        <ele>7</ele>
        <time>2013-05-10T12:17:20Z</time>
      </trkpt>
      <trkpt lat="43.68013" lon="4.6245">
        <ele>7</ele>
        <time>2013-05-10T12:17:49Z</time>
      </trkpt>
      <trkpt lat="43.68013" lon="4.62451">
        <ele>7</ele>
        <time>2013-05-10T12:18:37Z</time>
      </trkpt>
      <trkpt lat="43.68013" lon="4.6245">
        <ele>7</ele>
        <time>2013-05-10T12:19:31Z</time>
      </trkpt>
      <trkpt lat="43.68014" lon="4.62449">
        <ele>7</ele>
        <time>2013-05-10T12:19:53Z</time>
      </trkpt>
      <trkpt lat="43.68014" lon="4.62452">
        <ele>7</ele>
        <time>2013-05-10T12:20:07Z</time>
      </trkpt>
      <trkpt lat="43.68015" lon="4.6245">
        <ele>7</ele>
        <time>2013-05-10T12:20:19Z</time>
      </trkpt>
      <trkpt lat="43.68014" lon="4.62452">
        <ele>7</ele>
        <time>2013-05-10T12:20:30Z</time>
      </trkpt>
      <trkpt lat="43.68014" lon="4.62453">
        <ele>3</ele>
        <time>2013-05-10T12:20:42Z</time>
      </trkpt>
      <trkpt lat="43.68015" lon="4.62453">
        <ele>3</ele>
        <time>2013-05-10T12:20:53Z</time>
      </trkpt>
      <trkpt lat="43.68015" lon="4.62451">
        <ele>5</ele>
        <time>2013-05-10T12:21:19Z</time>
      </trkpt>
      <trkpt lat="43.68015" lon="4.6245">
        <ele>5</ele>
        <time>2013-05-10T12:21:29Z</time>
      </trkpt>
      <trkpt lat="43.68014" lon="4.62448">
        <ele>5</ele>
        <time>2013-05-10T12:21:44Z</time>
      </trkpt>
      <trkpt lat="43.68013" lon="4.62449">
        <ele>5</ele>
        <time>2013-05-10T12:22:12Z</time>
      </trkpt>
      <trkpt lat="43.68012" lon="4.6245">
        <ele>5</ele>
        <time>2013-05-10T12:23:01Z</time>
      </trkpt>
      <trkpt lat="43.68012" lon="4.6245">
        <ele>5</ele>
        <time>2013-05-10T12:23:42Z</time>
      </trkpt>
      <trkpt lat="43.68013" lon="4.62448">
        <ele>5</ele>
        <time>2013-05-10T12:24:13Z</time>
      </trkpt>
      <trkpt lat="43.68013" lon="4.62447">
        <ele>3</ele>
        <time>2013-05-10T12:24:33Z</time>
      </trkpt>
      <trkpt lat="43.68013" lon="4.62448">
        <ele>3</ele>
        <time>2013-05-10T12:24:48Z</time>
      </trkpt>
      <trkpt lat="43.68014" lon="4.6245">
        <ele>3</ele>
        <time>2013-05-10T12:25:03Z</time>
      </trkpt>
      <trkpt lat="43.68014" lon="4.62448">
        <ele>3</ele>
        <time>2013-05-10T12:25:19Z</time>
      </trkpt>
      <trkpt lat="43.68012" lon="4.62449">
        <ele>6</ele>
        <time>2013-05-10T12:25:30Z</time>
      </trkpt>
      <trkpt lat="43.68014" lon="4.62448">
        <ele>7</ele>
        <time>2013-05-10T12:25:58Z</time>
      </trkpt>
      <trkpt lat="43.68014" lon="4.62451">
        <ele>7</ele>
        <time>2013-05-10T12:26:31Z</time>
      </trkpt>
      <trkpt lat="43.68013" lon="4.62452">
        <ele>7</ele>
        <time>2013-05-10T12:26:41Z</time>
      </trkpt>
      <trkpt lat="43.68013" lon="4.62451">
        <ele>7</ele>
        <time>2013-05-10T12:26:54Z</time>
      </trkpt>
      <trkpt lat="43.68015" lon="4.62448">
        <ele>5</ele>
        <time>2013-05-10T12:27:19Z</time>
      </trkpt>
      <trkpt lat="43.68018" lon="4.62446">
        <ele>4</ele>
        <time>2013-05-10T12:27:30Z</time>
      </trkpt>
      <trkpt lat="43.68016" lon="4.62448">
        <ele>4</ele>
        <time>2013-05-10T12:27:40Z</time>
      </trkpt>
      <trkpt lat="43.68013" lon="4.62445">
        <ele>4</ele>
        <time>2013-05-10T12:27:51Z</time>
      </trkpt>
      <trkpt lat="43.68008" lon="4.62439">
        <ele>4</ele>
        <time>2013-05-10T12:28:03Z</time>
      </trkpt>
      <trkpt lat="43.68009" lon="4.6243">
        <ele>2</ele>
        <time>2013-05-10T12:28:13Z</time>
      </trkpt>
      <trkpt lat="43.68005" lon="4.6242">
        <ele>6</ele>
        <time>2013-05-10T12:28:37Z</time>
      </trkpt>
      <trkpt lat="43.68016" lon="4.62429">
        <ele>-15</ele>
        <time>2013-05-10T12:30:45Z</time>
      </trkpt>
      <trkpt lat="43.68008" lon="4.62429">
        <ele>-2</ele>
        <time>2013-05-10T12:31:01Z</time>
      </trkpt>
      <trkpt lat="43.68003" lon="4.62426">
        <ele>7</ele>
        <time>2013-05-10T12:31:13Z</time>
      </trkpt>
      <trkpt lat="43.68013" lon="4.62424">
        <ele>-1</ele>
        <time>2013-05-10T12:31:56Z</time>
      </trkpt>
      <trkpt lat="43.67972" lon="4.62424">
        <ele>-1</ele>
        <time>2013-05-10T12:33:41Z</time>
      </trkpt>
      <trkpt lat="43.67997" lon="4.62423">
        <ele>2</ele>
        <time>2013-05-10T12:33:52Z</time>
      </trkpt>
      <trkpt lat="43.68012" lon="4.62431">
        <ele>3.7</ele>
        <time>2013-05-10T12:34:02Z</time>
      </trkpt>
      <trkpt lat="43.68015" lon="4.62439">
        <ele>-2</ele>
        <time>2013-05-10T12:34:12Z</time>
      </trkpt>
      <trkpt lat="43.68014" lon="4.62444">
        <ele>-2</ele>
        <time>2013-05-10T12:34:23Z</time>
      </trkpt>
      <trkpt lat="43.68016" lon="4.62445">
        <ele>-1</ele>
        <time>2013-05-10T12:34:41Z</time>
      </trkpt>
      <trkpt lat="43.68017" lon="4.62447">
        <ele>3.7</ele>
        <time>2013-05-10T12:34:57Z</time>
      </trkpt>
      <trkpt lat="43.68015" lon="4.62449">
        <ele>1</ele>
        <time>2013-05-10T12:35:07Z</time>
      </trkpt>
      <trkpt lat="43.68016" lon="4.62448">
        <ele>4</ele>
        <time>2013-05-10T12:35:29Z</time>
      </trkpt>
      <trkpt lat="43.68018" lon="4.62447">
        <ele>4</ele>
        <time>2013-05-10T12:35:43Z</time>
      </trkpt>
      <trkpt lat="43.68016" lon="4.62448">
        <ele>4</ele>
        <time>2013-05-10T12:35:59Z</time>
      </trkpt>
      <trkpt lat="43.68014" lon="4.6245">
        <ele>5</ele>
        <time>2013-05-10T12:36:12Z</time>
      </trkpt>
      <trkpt lat="43.68015" lon="4.6245">
        <ele>6</ele>
        <time>2013-05-10T12:36:45Z</time>
      </trkpt>
      <trkpt lat="43.68015" lon="4.62449">
        <ele>6</ele>
        <time>2013-05-10T12:37:05Z</time>
      </trkpt>
      <trkpt lat="43.68017" lon="4.62448">
        <ele>5</ele>
        <time>2013-05-10T12:37:39Z</time>
      </trkpt>
      <trkpt lat="43.68016" lon="4.62448">
        <ele>3</ele>
        <time>2013-05-10T12:38:08Z</time>
      </trkpt>
      <trkpt lat="43.68015" lon="4.62448">
        <ele>3</ele>
        <time>2013-05-10T12:38:18Z</time>
      </trkpt>
      <trkpt lat="43.68015" lon="4.62446">
        <ele>4</ele>
        <time>2013-05-10T12:38:43Z</time>
      </trkpt>
      <trkpt lat="43.68014" lon="4.62448">
        <ele>4</ele>
        <time>2013-05-10T12:38:57Z</time>
      </trkpt>
      <trkpt lat="43.68013" lon="4.62444">
        <ele>4</ele>
        <time>2013-05-10T12:39:18Z</time>
      </trkpt>
      <trkpt lat="43.68011" lon="4.62444">
        <ele>4</ele>
        <time>2013-05-10T12:39:50Z</time>
      </trkpt>
      <trkpt lat="43.6801" lon="4.62442">
        <ele>4</ele>
        <time>2013-05-10T12:40:00Z</time>
      </trkpt>
      <trkpt lat="43.68005" lon="4.62437">
        <ele>4</ele>
        <time>2013-05-10T12:40:12Z</time>
      </trkpt>
      <trkpt lat="43.68005" lon="4.62432">
        <ele>4</ele>
        <time>2013-05-10T12:40:23Z</time>
      </trkpt>
      <trkpt lat="43.68008" lon="4.62425">
        <ele>4</ele>
        <time>2013-05-10T12:40:34Z</time>
      </trkpt>
      <trkpt lat="43.68012" lon="4.62422">
        <ele>3</ele>
        <time>2013-05-10T12:40:46Z</time>
      </trkpt>
      <trkpt lat="43.68014" lon="4.62417">
        <ele>3</ele>
        <time>2013-05-10T12:40:58Z</time>
      </trkpt>
      <trkpt lat="43.68014" lon="4.62414">
        <ele>4</ele>
        <time>2013-05-10T12:41:10Z</time>
      </trkpt>
      <trkpt lat="43.68011" lon="4.62408">
        <ele>5</ele>
        <time>2013-05-10T12:41:21Z</time>
      </trkpt>
      <trkpt lat="43.68008" lon="4.62399">
        <ele>5</ele>
        <time>2013-05-10T12:41:33Z</time>
      </trkpt>
      <trkpt lat="43.68006" lon="4.62393">
        <ele>6</ele>
        <time>2013-05-10T12:41:43Z</time>
      </trkpt>
      <trkpt lat="43.68003" lon="4.62383">
        <ele>6</ele>
        <time>2013-05-10T12:41:53Z</time>
      </trkpt>
      <trkpt lat="43.67998" lon="4.62374">
        <ele>7</ele>
        <time>2013-05-10T12:42:03Z</time>
      </trkpt>
      <trkpt lat="43.67994" lon="4.62365">
        <ele>8</ele>
        <time>2013-05-10T12:42:14Z</time>
      </trkpt>
      <trkpt lat="43.6799" lon="4.62356">
        <ele>8</ele>
        <time>2013-05-10T12:42:25Z</time>
      </trkpt>
      <trkpt lat="43.67985" lon="4.62349">
        <ele>8</ele>
        <time>2013-05-10T12:42:36Z</time>
      </trkpt>
      <trkpt lat="43.67982" lon="4.62335">
        <ele>8</ele>
        <time>2013-05-10T12:42:47Z</time>
      </trkpt>
      <trkpt lat="43.67978" lon="4.62326">
        <ele>8</ele>
        <time>2013-05-10T12:42:57Z</time>
      </trkpt>
      <trkpt lat="43.67971" lon="4.62314">
        <ele>8</ele>
        <time>2013-05-10T12:43:08Z</time>
      </trkpt>
      <trkpt lat="43.67966" lon="4.62305">
        <ele>9</ele>
        <time>2013-05-10T12:43:18Z</time>
      </trkpt>
      <trkpt lat="43.67962" lon="4.62295">
        <ele>9</ele>
        <time>2013-05-10T12:43:28Z</time>
      </trkpt>
      <trkpt lat="43.67958" lon="4.62285">
        <ele>9</ele>
        <time>2013-05-10T12:43:38Z</time>
      </trkpt>
      <trkpt lat="43.67957" lon="4.62276">
        <ele>10</ele>
        <time>2013-05-10T12:43:50Z</time>
      </trkpt>
      <trkpt lat="43.67957" lon="4.62267">
        <ele>12</ele>
        <time>2013-05-10T12:44:01Z</time>
      </trkpt>
      <trkpt lat="43.67953" lon="4.62264">
        <ele>14</ele>
        <time>2013-05-10T12:44:13Z</time>
      </trkpt>
      <trkpt lat="43.67951" lon="4.62258">
        <ele>14</ele>
        <time>2013-05-10T12:44:24Z</time>
      </trkpt>
      <trkpt lat="43.67952" lon="4.62252">
        <ele>14</ele>
        <time>2013-05-10T12:44:35Z</time>
      </trkpt>
      <trkpt lat="43.67942" lon="4.62255">
        <ele>14</ele>
        <time>2013-05-10T12:44:46Z</time>
      </trkpt>
      <trkpt lat="43.67935" lon="4.62264">
        <ele>14</ele>
        <time>2013-05-10T12:44:56Z</time>
      </trkpt>
      <trkpt lat="43.67927" lon="4.62273">
        <ele>14</ele>
        <time>2013-05-10T12:45:06Z</time>
      </trkpt>
      <trkpt lat="43.6792" lon="4.6228">
        <ele>14</ele>
        <time>2013-05-10T12:45:16Z</time>
      </trkpt>
      <trkpt lat="43.67912" lon="4.62288">
        <ele>14</ele>
        <time>2013-05-10T12:45:26Z</time>
      </trkpt>
      <trkpt lat="43.67906" lon="4.62293">
        <ele>14</ele>
        <time>2013-05-10T12:45:36Z</time>
      </trkpt>
      <trkpt lat="43.67899" lon="4.623">
        <ele>14</ele>
        <time>2013-05-10T12:45:46Z</time>
      </trkpt>
      <trkpt lat="43.67891" lon="4.62309">
        <ele>14</ele>
        <time>2013-05-10T12:45:56Z</time>
      </trkpt>
      <trkpt lat="43.67883" lon="4.62318">
        <ele>14</ele>
        <time>2013-05-10T12:46:06Z</time>
      </trkpt>
      <trkpt lat="43.67875" lon="4.62325">
        <ele>14</ele>
        <time>2013-05-10T12:46:16Z</time>
      </trkpt>
      <trkpt lat="43.67867" lon="4.62333">
        <ele>14</ele>
        <time>2013-05-10T12:46:26Z</time>
      </trkpt>
      <trkpt lat="43.6786" lon="4.62339">
        <ele>14</ele>
        <time>2013-05-10T12:46:36Z</time>
      </trkpt>
      <trkpt lat="43.67852" lon="4.62347">
        <ele>14</ele>
        <time>2013-05-10T12:46:46Z</time>
      </trkpt>
      <trkpt lat="43.67844" lon="4.62353">
        <ele>14</ele>
        <time>2013-05-10T12:46:56Z</time>
      </trkpt>
      <trkpt lat="43.67838" lon="4.62358">
        <ele>14</ele>
        <time>2013-05-10T12:47:06Z</time>
      </trkpt>
      <trkpt lat="43.67829" lon="4.62365">
        <ele>14</ele>
        <time>2013-05-10T12:47:16Z</time>
      </trkpt>
      <trkpt lat="43.67826" lon="4.62362">
        <ele>13</ele>
        <time>2013-05-10T12:47:28Z</time>
      </trkpt>
      <trkpt lat="43.67826" lon="4.62362">
        <ele>4</ele>
        <time>2013-05-10T12:48:27Z</time>
      </trkpt>
      <trkpt lat="43.67823" lon="4.62368">
        <ele>3</ele>
        <time>2013-05-10T12:48:38Z</time>
      </trkpt>
      <trkpt lat="43.67817" lon="4.62375">
        <ele>3</ele>
        <time>2013-05-10T12:48:49Z</time>
      </trkpt>
      <trkpt lat="43.67811" lon="4.62384">
        <ele>3</ele>
        <time>2013-05-10T12:48:59Z</time>
      </trkpt>
      <trkpt lat="43.67804" lon="4.62395">
        <ele>6</ele>
        <time>2013-05-10T12:49:10Z</time>
      </trkpt>
      <trkpt lat="43.67797" lon="4.62407">
        <ele>14</ele>
        <time>2013-05-10T12:49:20Z</time>
      </trkpt>
      <trkpt lat="43.67791" lon="4.62415">
        <ele>22</ele>
        <time>2013-05-10T12:49:31Z</time>
      </trkpt>
      <trkpt lat="43.67784" lon="4.62417">
        <ele>25</ele>
        <time>2013-05-10T12:49:41Z</time>
      </trkpt>
      <trkpt lat="43.67776" lon="4.6242">
        <ele>25</ele>
        <time>2013-05-10T12:49:51Z</time>
      </trkpt>
      <trkpt lat="43.67771" lon="4.62422">
        <ele>26</ele>
        <time>2013-05-10T12:50:02Z</time>
      </trkpt>
      <trkpt lat="43.67762" lon="4.62425">
        <ele>30</ele>
        <time>2013-05-10T12:50:12Z</time>
      </trkpt>
      <trkpt lat="43.67752" lon="4.62428">
        <ele>31</ele>
        <time>2013-05-10T12:50:23Z</time>
      </trkpt>
      <trkpt lat="43.67743" lon="4.62434">
        <ele>34</ele>
        <time>2013-05-10T12:50:34Z</time>
      </trkpt>
      <trkpt lat="43.67736" lon="4.62436">
        <ele>35</ele>
        <time>2013-05-10T12:50:44Z</time>
      </trkpt>
      <trkpt lat="43.67729" lon="4.62445">
        <ele>31</ele>
        <time>2013-05-10T12:50:55Z</time>
      </trkpt>
      <trkpt lat="43.67719" lon="4.6245">
        <ele>34</ele>
        <time>2013-05-10T12:51:06Z</time>
      </trkpt>
      <trkpt lat="43.67708" lon="4.62454">
        <ele>45</ele>
        <time>2013-05-10T12:51:17Z</time>
      </trkpt>
      <trkpt lat="43.67707" lon="4.62448">
        <ele>52</ele>
        <time>2013-05-10T12:51:27Z</time>
      </trkpt>
      <trkpt lat="43.67703" lon="4.62442">
        <ele>52</ele>
        <time>2013-05-10T12:51:38Z</time>
      </trkpt>
      <trkpt lat="43.67696" lon="4.62437">
        <ele>47</ele>
        <time>2013-05-10T12:51:48Z</time>
      </trkpt>
      <trkpt lat="43.67688" lon="4.62437">
        <ele>33</ele>
        <time>2013-05-10T12:52:02Z</time>
      </trkpt>
      <trkpt lat="43.67683" lon="4.62432">
        <ele>25</ele>
        <time>2013-05-10T12:52:12Z</time>
      </trkpt>
      <trkpt lat="43.67677" lon="4.6243">
        <ele>24</ele>
        <time>2013-05-10T12:52:22Z</time>
      </trkpt>
      <trkpt lat="43.67672" lon="4.62428">
        <ele>22</ele>
        <time>2013-05-10T12:52:32Z</time>
      </trkpt>
      <trkpt lat="43.67664" lon="4.6243">
        <ele>19</ele>
        <time>2013-05-10T12:52:43Z</time>
      </trkpt>
      <trkpt lat="43.67651" lon="4.62433">
        <ele>19</ele>
        <time>2013-05-10T12:52:54Z</time>
      </trkpt>
      <trkpt lat="43.67645" lon="4.62432">
        <ele>17</ele>
        <time>2013-05-10T12:53:05Z</time>
      </trkpt>
      <trkpt lat="43.67637" lon="4.6243">
        <ele>17</ele>
        <time>2013-05-10T12:53:17Z</time>
      </trkpt>
      <trkpt lat="43.67634" lon="4.62431">
        <ele>17</ele>
        <time>2013-05-10T12:53:28Z</time>
      </trkpt>
      <trkpt lat="43.67625" lon="4.62434">
        <ele>19</ele>
        <time>2013-05-10T12:53:38Z</time>
      </trkpt>
      <trkpt lat="43.6762" lon="4.62437">
        <ele>23</ele>
        <time>2013-05-10T12:53:52Z</time>
      </trkpt>
      <trkpt lat="43.67617" lon="4.62439">
        <ele>24</ele>
        <time>2013-05-10T12:54:03Z</time>
      </trkpt>
      <trkpt lat="43.67609" lon="4.62437">
        <ele>22</ele>
        <time>2013-05-10T12:54:13Z</time>
      </trkpt>
      <trkpt lat="43.67607" lon="4.62434">
        <ele>21</ele>
        <time>2013-05-10T12:54:24Z</time>
      </trkpt>
      <trkpt lat="43.67608" lon="4.62425">
        <ele>17</ele>
        <time>2013-05-10T12:54:38Z</time>
      </trkpt>
      <trkpt lat="43.67605" lon="4.62428">
        <ele>15</ele>
        <time>2013-05-10T12:54:48Z</time>
      </trkpt>
      <trkpt lat="43.67607" lon="4.6243">
        <ele>12</ele>
        <time>2013-05-10T12:55:12Z</time>
      </trkpt>
      <trkpt lat="43.67611" lon="4.62432">
        <ele>9</ele>
        <time>2013-05-10T12:55:23Z</time>
      </trkpt>
      <trkpt lat="43.67612" lon="4.62436">
        <ele>9</ele>
        <time>2013-05-10T12:55:34Z</time>
      </trkpt>
      <trkpt lat="43.67605" lon="4.62434">
        <ele>11</ele>
        <time>2013-05-10T12:55:44Z</time>
      </trkpt>
      <trkpt lat="43.67603" lon="4.62441">
        <ele>11</ele>
        <time>2013-05-10T12:55:54Z</time>
      </trkpt>
      <trkpt lat="43.67598" lon="4.62444">
        <ele>3</ele>
        <time>2013-05-10T12:56:04Z</time>
      </trkpt>
      <trkpt lat="43.6759" lon="4.62445">
        <ele>8</ele>
        <time>2013-05-10T12:56:14Z</time>
      </trkpt>
      <trkpt lat="43.67581" lon="4.62452">
        <ele>18</ele>
        <time>2013-05-10T12:56:24Z</time>
      </trkpt>
      <trkpt lat="43.67568" lon="4.62452">
        <ele>22</ele>
        <time>2013-05-10T12:56:35Z</time>
      </trkpt>
      <trkpt lat="43.67559" lon="4.62458">
        <ele>24</ele>
        <time>2013-05-10T12:56:45Z</time>
      </trkpt>
      <trkpt lat="43.67553" lon="4.62459">
        <ele>24</ele>
        <time>2013-05-10T12:56:55Z</time>
      </trkpt>
      <trkpt lat="43.67554" lon="4.62456">
        <ele>20</ele>
        <time>2013-05-10T12:57:05Z</time>
      </trkpt>
      <trkpt lat="43.67558" lon="4.62458">
        <ele>15</ele>
        <time>2013-05-10T12:57:17Z</time>
      </trkpt>
      <trkpt lat="43.6756" lon="4.62456">
        <ele>11</ele>
        <time>2013-05-10T12:57:30Z</time>
      </trkpt>
      <trkpt lat="43.67561" lon="4.62453">
        <ele>11</ele>
        <time>2013-05-10T12:57:44Z</time>
      </trkpt>
      <trkpt lat="43.67557" lon="4.62452">
        <ele>13</ele>
        <time>2013-05-10T12:58:00Z</time>
      </trkpt>
      <trkpt lat="43.67556" lon="4.62444">
        <ele>14</ele>
        <time>2013-05-10T12:58:11Z</time>
      </trkpt>
      <trkpt lat="43.67553" lon="4.62435">
        <ele>16</ele>
        <time>2013-05-10T12:58:23Z</time>
      </trkpt>
      <trkpt lat="43.6755" lon="4.62424">
        <ele>16</ele>
        <time>2013-05-10T12:58:35Z</time>
      </trkpt>
      <trkpt lat="43.67545" lon="4.6241">
        <ele>16</ele>
        <time>2013-05-10T12:58:47Z</time>
      </trkpt>
      <trkpt lat="43.67548" lon="4.62399">
        <ele>16</ele>
        <time>2013-05-10T12:58:59Z</time>
      </trkpt>
      <trkpt lat="43.67545" lon="4.62392">
        <ele>16</ele>
        <time>2013-05-10T12:59:09Z</time>
      </trkpt>
      <trkpt lat="43.67551" lon="4.62386">
        <ele>19</ele>
        <time>2013-05-10T12:59:20Z</time>
      </trkpt>
      <trkpt lat="43.67559" lon="4.62386">
        <ele>19</ele>
        <time>2013-05-10T12:59:30Z</time>
      </trkpt>
      <trkpt lat="43.67567" lon="4.62379">
        <ele>17</ele>
        <time>2013-05-10T12:59:40Z</time>
      </trkpt>
      <trkpt lat="43.67577" lon="4.62379">
        <ele>16</ele>
        <time>2013-05-10T12:59:51Z</time>
      </trkpt>
      <trkpt lat="43.67578" lon="4.62373">
        <ele>15</ele>
        <time>2013-05-10T13:00:02Z</time>
      </trkpt>
      <trkpt lat="43.67577" lon="4.62362">
        <ele>11</ele>
        <time>2013-05-10T13:00:16Z</time>
      </trkpt>
      <trkpt lat="43.67574" lon="4.6236">
        <ele>11</ele>
        <time>2013-05-10T13:00:29Z</time>
      </trkpt>
      <trkpt lat="43.67577" lon="4.6236">
        <ele>11</ele>
        <time>2013-05-10T13:00:40Z</time>
      </trkpt>
      <trkpt lat="43.67579" lon="4.62361">
        <ele>16</ele>
        <time>2013-05-10T13:00:50Z</time>
      </trkpt>
      <trkpt lat="43.6758" lon="4.62365">
        <ele>16</ele>
        <time>2013-05-10T13:01:00Z</time>
      </trkpt>
      <trkpt lat="43.67581" lon="4.62364">
        <ele>17</ele>
        <time>2013-05-10T13:01:12Z</time>
      </trkpt>
      <trkpt lat="43.6759" lon="4.62366">
        <ele>16</ele>
        <time>2013-05-10T13:01:25Z</time>
      </trkpt>
      <trkpt lat="43.67595" lon="4.62361">
        <ele>10</ele>
        <time>2013-05-10T13:01:40Z</time>
      </trkpt>
      <trkpt lat="43.67601" lon="4.62359">
        <ele>10</ele>
        <time>2013-05-10T13:01:51Z</time>
      </trkpt>
      <trkpt lat="43.67611" lon="4.62362">
        <ele>10</ele>
        <time>2013-05-10T13:02:01Z</time>
      </trkpt>
      <trkpt lat="43.67618" lon="4.62364">
        <ele>10</ele>
        <time>2013-05-10T13:02:16Z</time>
      </trkpt>
      <trkpt lat="43.67623" lon="4.62364">
        <ele>14</ele>
        <time>2013-05-10T13:02:33Z</time>
      </trkpt>
      <trkpt lat="43.67627" lon="4.62364">
        <ele>19</ele>
        <time>2013-05-10T13:02:43Z</time>
      </trkpt>
      <trkpt lat="43.67627" lon="4.62367">
        <ele>24</ele>
        <time>2013-05-10T13:02:58Z</time>
      </trkpt>
      <trkpt lat="43.67626" lon="4.62367">
        <ele>20</ele>
        <time>2013-05-10T13:03:24Z</time>
      </trkpt>
      <trkpt lat="43.67623" lon="4.62367">
        <ele>18</ele>
        <time>2013-05-10T13:03:35Z</time>
      </trkpt>
      <trkpt lat="43.67622" lon="4.62365">
        <ele>17</ele>
        <time>2013-05-10T13:03:45Z</time>
      </trkpt>
      <trkpt lat="43.67619" lon="4.62366">
        <ele>18</ele>
        <time>2013-05-10T13:03:57Z</time>
      </trkpt>
      <trkpt lat="43.67618" lon="4.62368">
        <ele>18</ele>
        <time>2013-05-10T13:04:08Z</time>
      </trkpt>
      <trkpt lat="43.67614" lon="4.62369">
        <ele>18</ele>
        <time>2013-05-10T13:04:20Z</time>
      </trkpt>
      <trkpt lat="43.67611" lon="4.62367">
        <ele>19</ele>
        <time>2013-05-10T13:04:31Z</time>
      </trkpt>
      <trkpt lat="43.6761" lon="4.62366">
        <ele>25</ele>
        <time>2013-05-10T13:04:47Z</time>
      </trkpt>
      <trkpt lat="43.6761" lon="4.62366">
        <ele>25</ele>
        <time>2013-05-10T13:05:03Z</time>
      </trkpt>
      <trkpt lat="43.67609" lon="4.62365">
        <ele>25</ele>
        <time>2013-05-10T13:05:20Z</time>
      </trkpt>
      <trkpt lat="43.67612" lon="4.62365">
        <ele>25</ele>
        <time>2013-05-10T13:05:30Z</time>
      </trkpt>
      <trkpt lat="43.67606" lon="4.62363">
        <ele>25</ele>
        <time>2013-05-10T13:05:43Z</time>
      </trkpt>
      <trkpt lat="43.67604" lon="4.62367">
        <ele>26</ele>
        <time>2013-05-10T13:05:53Z</time>
      </trkpt>
      <trkpt lat="43.67604" lon="4.62364">
        <ele>28</ele>
        <time>2013-05-10T13:06:13Z</time>
      </trkpt>
      <trkpt lat="43.67604" lon="4.62364">
        <ele>27</ele>
        <time>2013-05-10T13:06:28Z</time>
      </trkpt>
      <trkpt lat="43.67603" lon="4.62369">
        <ele>27</ele>
        <time>2013-05-10T13:06:38Z</time>
      </trkpt>
      <trkpt lat="43.67601" lon="4.62371">
        <ele>27</ele>
        <time>2013-05-10T13:06:53Z</time>
      </trkpt>
      <trkpt lat="43.67603" lon="4.62375">
        <ele>27</ele>
        <time>2013-05-10T13:07:03Z</time>
      </trkpt>
      <trkpt lat="43.67602" lon="4.62372">
        <ele>29</ele>
        <time>2013-05-10T13:07:13Z</time>
      </trkpt>
      <trkpt lat="43.67603" lon="4.62372">
        <ele>30</ele>
        <time>2013-05-10T13:07:29Z</time>
      </trkpt>
      <trkpt lat="43.67606" lon="4.62372">
        <ele>30</ele>
        <time>2013-05-10T13:07:40Z</time>
      </trkpt>
      <trkpt lat="43.67604" lon="4.6237">
        <ele>30</ele>
        <time>2013-05-10T13:07:51Z</time>
      </trkpt>
      <trkpt lat="43.67604" lon="4.6237">
        <ele>30</ele>
        <time>2013-05-10T13:08:11Z</time>
      </trkpt>
      <trkpt lat="43.67603" lon="4.62361">
        <ele>18</ele>
        <time>2013-05-10T13:08:24Z</time>
      </trkpt>
      <trkpt lat="43.67606" lon="4.62369">
        <ele>18</ele>
        <time>2013-05-10T13:08:35Z</time>
      </trkpt>
      <trkpt lat="43.67607" lon="4.62366">
        <ele>27</ele>
        <time>2013-05-10T13:08:49Z</time>
      </trkpt>
      <trkpt lat="43.67612" lon="4.62363">
        <ele>26</ele>
        <time>2013-05-10T13:09:04Z</time>
      </trkpt>
      <trkpt lat="43.67606" lon="4.62362">
        <ele>23</ele>
        <time>2013-05-10T13:09:14Z</time>
      </trkpt>
      <trkpt lat="43.67607" lon="4.62362">
        <ele>18</ele>
        <time>2013-05-10T13:09:24Z</time>
      </trkpt>
      <trkpt lat="43.67605" lon="4.62359">
        <ele>17</ele>
        <time>2013-05-10T13:09:34Z</time>
      </trkpt>
      <trkpt lat="43.67595" lon="4.62354">
        <ele>9</ele>
        <time>2013-05-10T13:09:44Z</time>
      </trkpt>
      <trkpt lat="43.67602" lon="4.62358">
        <ele>8</ele>
        <time>2013-05-10T13:09:55Z</time>
      </trkpt>
      <trkpt lat="43.67606" lon="4.6236">
        <ele>11</ele>
        <time>2013-05-10T13:10:06Z</time>
      </trkpt>
      <trkpt lat="43.67608" lon="4.62362">
        <ele>14</ele>
        <time>2013-05-10T13:10:44Z</time>
      </trkpt>
      <trkpt lat="43.67607" lon="4.62363">
        <ele>14</ele>
        <time>2013-05-10T13:10:54Z</time>
      </trkpt>
      <trkpt lat="43.67607" lon="4.6236">
        <ele>14</ele>
        <time>2013-05-10T13:11:05Z</time>
      </trkpt>
      <trkpt lat="43.67606" lon="4.62358">
        <ele>14</ele>
        <time>2013-05-10T13:11:15Z</time>
      </trkpt>
      <trkpt lat="43.67615" lon="4.62357">
        <ele>14</ele>
        <time>2013-05-10T13:11:26Z</time>
      </trkpt>
      <trkpt lat="43.67617" lon="4.62351">
        <ele>14</ele>
        <time>2013-05-10T13:11:37Z</time>
      </trkpt>
      <trkpt lat="43.67625" lon="4.62348">
        <ele>14</ele>
        <time>2013-05-10T13:11:47Z</time>
      </trkpt>
      <trkpt lat="43.67638" lon="4.62345">
        <ele>14</ele>
        <time>2013-05-10T13:11:59Z</time>
      </trkpt>
      <trkpt lat="43.67646" lon="4.62348">
        <ele>14</ele>
        <time>2013-05-10T13:12:11Z</time>
      </trkpt>
      <trkpt lat="43.67646" lon="4.62347">
        <ele>17</ele>
        <time>2013-05-10T13:12:24Z</time>
      </trkpt>
      <trkpt lat="43.67643" lon="4.62349">
        <ele>17</ele>
        <time>2013-05-10T13:12:36Z</time>
      </trkpt>
      <trkpt lat="43.67644" lon="4.62346">
        <ele>19</ele>
        <time>2013-05-10T13:12:49Z</time>
      </trkpt>
      <trkpt lat="43.67656" lon="4.62339">
        <ele>19</ele>
        <time>2013-05-10T13:13:00Z</time>
      </trkpt>
      <trkpt lat="43.67655" lon="4.62336">
        <ele>19</ele>
        <time>2013-05-10T13:13:12Z</time>
      </trkpt>
      <trkpt lat="43.67661" lon="4.6233">
        <ele>19</ele>
        <time>2013-05-10T13:13:23Z</time>
      </trkpt>
      <trkpt lat="43.67657" lon="4.62323">
        <ele>18</ele>
        <time>2013-05-10T13:13:34Z</time>
      </trkpt>
      <trkpt lat="43.67651" lon="4.6232">
        <ele>15</ele>
        <time>2013-05-10T13:13:44Z</time>
      </trkpt>
      <trkpt lat="43.6765" lon="4.6231">
        <ele>14</ele>
        <time>2013-05-10T13:13:54Z</time>
      </trkpt>
      <trkpt lat="43.67649" lon="4.62309">
        <ele>14</ele>
        <time>2013-05-10T13:14:13Z</time>
      </trkpt>
      <trkpt lat="43.67654" lon="4.62303">
        <ele>14</ele>
        <time>2013-05-10T13:14:24Z</time>
      </trkpt>
      <trkpt lat="43.67661" lon="4.623">
        <ele>10</ele>
        <time>2013-05-10T13:14:34Z</time>
      </trkpt>
      <trkpt lat="43.67656" lon="4.62303">
        <ele>9</ele>
        <time>2013-05-10T13:14:44Z</time>
      </trkpt>
      <trkpt lat="43.67656" lon="4.623">
        <ele>9</ele>
        <time>2013-05-10T13:14:57Z</time>
      </trkpt>
      <trkpt lat="43.67656" lon="4.623">
        <ele>9</ele>
        <time>2013-05-10T13:15:08Z</time>
      </trkpt>
      <trkpt lat="43.67659" lon="4.62304">
        <ele>10</ele>
        <time>2013-05-10T13:15:19Z</time>
      </trkpt>
      <trkpt lat="43.67657" lon="4.62304">
        <ele>13</ele>
        <time>2013-05-10T13:15:38Z</time>
      </trkpt>
      <trkpt lat="43.67653" lon="4.62309">
        <ele>13</ele>
        <time>2013-05-10T13:15:49Z</time>
      </trkpt>
      <trkpt lat="43.67656" lon="4.62308">
        <ele>14</ele>
        <time>2013-05-10T13:15:59Z</time>
      </trkpt>
      <trkpt lat="43.67652" lon="4.62302">
        <ele>14</ele>
        <time>2013-05-10T13:16:10Z</time>
      </trkpt>
      <trkpt lat="43.67643" lon="4.62297">
        <ele>13</ele>
        <time>2013-05-10T13:16:21Z</time>
      </trkpt>
      <trkpt lat="43.6764" lon="4.62285">
        <ele>13</ele>
        <time>2013-05-10T13:16:31Z</time>
      </trkpt>
      <trkpt lat="43.67638" lon="4.62281">
        <ele>13</ele>
        <time>2013-05-10T13:16:41Z</time>
      </trkpt>
      <trkpt lat="43.67637" lon="4.62275">
        <ele>13</ele>
        <time>2013-05-10T13:16:51Z</time>
      </trkpt>
      <trkpt lat="43.67634" lon="4.6227">
        <ele>13</ele>
        <time>2013-05-10T13:17:03Z</time>
      </trkpt>
      <trkpt lat="43.6763" lon="4.62263">
        <ele>13</ele>
        <time>2013-05-10T13:17:13Z</time>
      </trkpt>
      <trkpt lat="43.67629" lon="4.62257">
        <ele>13</ele>
        <time>2013-05-10T13:17:23Z</time>
      </trkpt>
      <trkpt lat="43.67628" lon="4.62257">
        <ele>13</ele>
        <time>2013-05-10T13:17:35Z</time>
      </trkpt>
      <trkpt lat="43.67628" lon="4.62259">
        <ele>13</ele>
        <time>2013-05-10T13:17:46Z</time>
      </trkpt>
      <trkpt lat="43.67627" lon="4.62257">
        <ele>13</ele>
        <time>2013-05-10T13:18:05Z</time>
      </trkpt>
      <trkpt lat="43.67622" lon="4.62253">
        <ele>13</ele>
        <time>2013-05-10T13:18:15Z</time>
      </trkpt>
      <trkpt lat="43.67616" lon="4.62248">
        <ele>13</ele>
        <time>2013-05-10T13:18:25Z</time>
      </trkpt>
      <trkpt lat="43.67612" lon="4.62242">
        <ele>13</ele>
        <time>2013-05-10T13:18:35Z</time>
      </trkpt>
      <trkpt lat="43.67609" lon="4.62233">
        <ele>13</ele>
        <time>2013-05-10T13:18:45Z</time>
      </trkpt>
      <trkpt lat="43.67608" lon="4.62229">
        <ele>16</ele>
        <time>2013-05-10T13:19:11Z</time>
      </trkpt>
      <trkpt lat="43.67608" lon="4.62225">
        <ele>28</ele>
        <time>2013-05-10T13:19:29Z</time>
      </trkpt>
      <trkpt lat="43.67611" lon="4.62227">
        <ele>28</ele>
        <time>2013-05-10T13:19:44Z</time>
      </trkpt>
      <trkpt lat="43.67616" lon="4.62227">
        <ele>28</ele>
        <time>2013-05-10T13:19:54Z</time>
      </trkpt>
      <trkpt lat="43.67616" lon="4.62226">
        <ele>27</ele>
        <time>2013-05-10T13:20:11Z</time>
      </trkpt>
      <trkpt lat="43.67619" lon="4.62225">
        <ele>22</ele>
        <time>2013-05-10T13:20:27Z</time>
      </trkpt>
      <trkpt lat="43.67609" lon="4.62228">
        <ele>15</ele>
        <time>2013-05-10T13:20:37Z</time>
      </trkpt>
      <trkpt lat="43.67605" lon="4.6222">
        <ele>12</ele>
        <time>2013-05-10T13:20:49Z</time>
      </trkpt>
      <trkpt lat="43.67597" lon="4.62215">
        <ele>12</ele>
        <time>2013-05-10T13:20:59Z</time>
      </trkpt>
      <trkpt lat="43.67589" lon="4.62208">
        <ele>12</ele>
        <time>2013-05-10T13:21:09Z</time>
      </trkpt>
      <trkpt lat="43.67575" lon="4.62208">
        <ele>12</ele>
        <time>2013-05-10T13:21:19Z</time>
      </trkpt>
      <trkpt lat="43.67573" lon="4.62219">
        <ele>12</ele>
        <time>2013-05-10T13:21:30Z</time>
      </trkpt>
      <trkpt lat="43.67576" lon="4.62226">
        <ele>13</ele>
        <time>2013-05-10T13:21:41Z</time>
      </trkpt>
      <trkpt lat="43.67574" lon="4.62226">
        <ele>13</ele>
        <time>2013-05-10T13:21:52Z</time>
      </trkpt>
      <trkpt lat="43.67574" lon="4.62231">
        <ele>14</ele>
        <time>2013-05-10T13:22:05Z</time>
      </trkpt>
      <trkpt lat="43.67572" lon="4.62227">
        <ele>14</ele>
        <time>2013-05-10T13:22:16Z</time>
      </trkpt>
      <trkpt lat="43.67572" lon="4.62224">
        <ele>14</ele>
        <time>2013-05-10T13:22:26Z</time>
      </trkpt>
      <trkpt lat="43.67571" lon="4.62228">
        <ele>14</ele>
        <time>2013-05-10T13:22:42Z</time>
      </trkpt>
      <trkpt lat="43.67571" lon="4.6223">
        <ele>14</ele>
        <time>2013-05-10T13:22:52Z</time>
      </trkpt>
      <trkpt lat="43.67572" lon="4.62233">
        <ele>19</ele>
        <time>2013-05-10T13:23:08Z</time>
      </trkpt>
      <trkpt lat="43.6757" lon="4.62229">
        <ele>19</ele>
        <time>2013-05-10T13:23:18Z</time>
      </trkpt>
      <trkpt lat="43.67569" lon="4.62228">
        <ele>17</ele>
        <time>2013-05-10T13:23:34Z</time>
      </trkpt>
      <trkpt lat="43.67567" lon="4.62226">
        <ele>16</ele>
        <time>2013-05-10T13:23:46Z</time>
      </trkpt>
      <trkpt lat="43.67565" lon="4.62219">
        <ele>16</ele>
        <time>2013-05-10T13:23:56Z</time>
      </trkpt>
      <trkpt lat="43.6756" lon="4.62211">
        <ele>15</ele>
        <time>2013-05-10T13:24:06Z</time>
      </trkpt>
      <trkpt lat="43.67557" lon="4.62209">
        <ele>15</ele>
        <time>2013-05-10T13:24:16Z</time>
      </trkpt>
      <trkpt lat="43.67557" lon="4.622">
        <ele>11</ele>
        <time>2013-05-10T13:24:28Z</time>
      </trkpt>
      <trkpt lat="43.67567" lon="4.62188">
        <ele>11</ele>
        <time>2013-05-10T13:24:42Z</time>
      </trkpt>
      <trkpt lat="43.67566" lon="4.6219">
        <ele>11</ele>
        <time>2013-05-10T13:24:55Z</time>
      </trkpt>
      <trkpt lat="43.67567" lon="4.6219">
        <ele>11</ele>
        <time>2013-05-10T13:25:06Z</time>
      </trkpt>
      <trkpt lat="43.67567" lon="4.62185">
        <ele>17</ele>
        <time>2013-05-10T13:25:17Z</time>
      </trkpt>
      <trkpt lat="43.67572" lon="4.62176">
        <ele>16</ele>
        <time>2013-05-10T13:25:28Z</time>
      </trkpt>
      <trkpt lat="43.67574" lon="4.62168">
        <ele>16</ele>
        <time>2013-05-10T13:25:38Z</time>
      </trkpt>
      <trkpt lat="43.67573" lon="4.62164">
        <ele>14</ele>
        <time>2013-05-10T13:25:48Z</time>
      </trkpt>
      <trkpt lat="43.67576" lon="4.62157">
        <ele>12</ele>
        <time>2013-05-10T13:25:58Z</time>
      </trkpt>
      <trkpt lat="43.67584" lon="4.62158">
        <ele>8</ele>
        <time>2013-05-10T13:26:09Z</time>
      </trkpt>
      <trkpt lat="43.67584" lon="4.6215">
        <ele>6</ele>
        <time>2013-05-10T13:26:19Z</time>
      </trkpt>
      <trkpt lat="43.67583" lon="4.62141">
        <ele>6</ele>
        <time>2013-05-10T13:26:29Z</time>
      </trkpt>
      <trkpt lat="43.6759" lon="4.62139">
        <ele>6</ele>
        <time>2013-05-10T13:26:39Z</time>
      </trkpt>
      <trkpt lat="43.67591" lon="4.62125">
        <ele>6</ele>
        <time>2013-05-10T13:26:50Z</time>
      </trkpt>
      <trkpt lat="43.67593" lon="4.62114">
        <ele>6</ele>
        <time>2013-05-10T13:27:00Z</time>
      </trkpt>
      <trkpt lat="43.67598" lon="4.62106">
        <ele>6</ele>
        <time>2013-05-10T13:27:10Z</time>
      </trkpt>
      <trkpt lat="43.67594" lon="4.62098">
        <ele>5</ele>
        <time>2013-05-10T13:27:20Z</time>
      </trkpt>
      <trkpt lat="43.67594" lon="4.62094">
        <ele>1</ele>
        <time>2013-05-10T13:27:32Z</time>
      </trkpt>
      <trkpt lat="43.67592" lon="4.62095">
        <ele>1</ele>
        <time>2013-05-10T13:27:43Z</time>
      </trkpt>
      <trkpt lat="43.67593" lon="4.62095">
        <ele>1</ele>
        <time>2013-05-10T13:27:54Z</time>
      </trkpt>
      <trkpt lat="43.67598" lon="4.62095">
        <ele>1</ele>
        <time>2013-05-10T13:28:05Z</time>
      </trkpt>
      <trkpt lat="43.67605" lon="4.62088">
        <ele>1</ele>
        <time>2013-05-10T13:28:15Z</time>
      </trkpt>
      <trkpt lat="43.67609" lon="4.62076">
        <ele>1</ele>
        <time>2013-05-10T13:28:26Z</time>
      </trkpt>
      <trkpt lat="43.67618" lon="4.62067">
        <ele>1</ele>
        <time>2013-05-10T13:28:36Z</time>
      </trkpt>
      <trkpt lat="43.67625" lon="4.62056">
        <ele>7</ele>
        <time>2013-05-10T13:28:47Z</time>
      </trkpt>
      <trkpt lat="43.67634" lon="4.62043">
        <ele>10</ele>
        <time>2013-05-10T13:28:58Z</time>
      </trkpt>
      <trkpt lat="43.67636" lon="4.6203">
        <ele>7</ele>
        <time>2013-05-10T13:29:10Z</time>
      </trkpt>
      <trkpt lat="43.67627" lon="4.6202">
        <ele>7</ele>
        <time>2013-05-10T13:29:20Z</time>
      </trkpt>
      <trkpt lat="43.67619" lon="4.6201">
        <ele>7</ele>
        <time>2013-05-10T13:29:30Z</time>
      </trkpt>
      <trkpt lat="43.67611" lon="4.61996">
        <ele>7</ele>
        <time>2013-05-10T13:29:41Z</time>
      </trkpt>
      <trkpt lat="43.67603" lon="4.61984">
        <ele>7</ele>
        <time>2013-05-10T13:29:53Z</time>
      </trkpt>
      <trkpt lat="43.67592" lon="4.61977">
        <ele>6</ele>
        <time>2013-05-10T13:30:03Z</time>
      </trkpt>
      <trkpt lat="43.67582" lon="4.61968">
        <ele>6</ele>
        <time>2013-05-10T13:30:13Z</time>
      </trkpt>
      <trkpt lat="43.67575" lon="4.6196">
        <ele>6</ele>
        <time>2013-05-10T13:30:24Z</time>
      </trkpt>
      <trkpt lat="43.67569" lon="4.61949">
        <ele>6</ele>
        <time>2013-05-10T13:30:34Z</time>
      </trkpt>
      <trkpt lat="43.67564" lon="4.61938">
        <ele>4</ele>
        <time>2013-05-10T13:30:46Z</time>
      </trkpt>
      <trkpt lat="43.67551" lon="4.61938">
        <ele>4</ele>
        <time>2013-05-10T13:30:56Z</time>
      </trkpt>
      <trkpt lat="43.67545" lon="4.61946">
        <ele>4</ele>
        <time>2013-05-10T13:31:08Z</time>
      </trkpt>
      <trkpt lat="43.67542" lon="4.61947">
        <ele>4</ele>
        <time>2013-05-10T13:31:22Z</time>
      </trkpt>
      <trkpt lat="43.67542" lon="4.61949">
        <ele>4</ele>
        <time>2013-05-10T13:31:42Z</time>
      </trkpt>
      <trkpt lat="43.67541" lon="4.61948">
        <ele>7</ele>
        <time>2013-05-10T13:31:54Z</time>
      </trkpt>
      <trkpt lat="43.67541" lon="4.61946">
        <ele>7</ele>
        <time>2013-05-10T13:32:05Z</time>
      </trkpt>
      <trkpt lat="43.67542" lon="4.61948">
        <ele>10</ele>
        <time>2013-05-10T13:32:20Z</time>
      </trkpt>
      <trkpt lat="43.6754" lon="4.61951">
        <ele>14</ele>
        <time>2013-05-10T13:32:30Z</time>
      </trkpt>
      <trkpt lat="43.6754" lon="4.61951">
        <ele>20</ele>
        <time>2013-05-10T13:32:51Z</time>
      </trkpt>
      <trkpt lat="43.6754" lon="4.61952">
        <ele>17</ele>
        <time>2013-05-10T13:33:13Z</time>
      </trkpt>
      <trkpt lat="43.67537" lon="4.61953">
        <ele>15</ele>
        <time>2013-05-10T13:33:26Z</time>
      </trkpt>
      <trkpt lat="43.67534" lon="4.61955">
        <ele>15</ele>
        <time>2013-05-10T13:33:40Z</time>
      </trkpt>
      <trkpt lat="43.67531" lon="4.61956">
        <ele>15</ele>
        <time>2013-05-10T13:33:54Z</time>
      </trkpt>
      <trkpt lat="43.67527" lon="4.6196">
        <ele>12</ele>
        <time>2013-05-10T13:34:06Z</time>
      </trkpt>
      <trkpt lat="43.67526" lon="4.61961">
        <ele>11</ele>
        <time>2013-05-10T13:34:21Z</time>
      </trkpt>
      <trkpt lat="43.67517" lon="4.6197">
        <ele>11</ele>
        <time>2013-05-10T13:34:32Z</time>
      </trkpt>
      <trkpt lat="43.67513" lon="4.61978">
        <ele>15</ele>
        <time>2013-05-10T13:34:42Z</time>
      </trkpt>
      <trkpt lat="43.67508" lon="4.61978">
        <ele>16</ele>
        <time>2013-05-10T13:34:52Z</time>
      </trkpt>
      <trkpt lat="43.67505" lon="4.61982">
        <ele>13</ele>
        <time>2013-05-10T13:35:03Z</time>
      </trkpt>
      <trkpt lat="43.675" lon="4.6199">
        <ele>11</ele>
        <time>2013-05-10T13:35:14Z</time>
      </trkpt>
      <trkpt lat="43.67495" lon="4.61998">
        <ele>9</ele>
        <time>2013-05-10T13:35:24Z</time>
      </trkpt>
      <trkpt lat="43.67492" lon="4.62003">
        <ele>8</ele>
        <time>2013-05-10T13:35:34Z</time>
      </trkpt>
      <trkpt lat="43.67485" lon="4.62014">
        <ele>8</ele>
        <time>2013-05-10T13:35:45Z</time>
      </trkpt>
      <trkpt lat="43.6748" lon="4.62023">
        <ele>7</ele>
        <time>2013-05-10T13:35:55Z</time>
      </trkpt>
      <trkpt lat="43.67474" lon="4.6203">
        <ele>6</ele>
        <time>2013-05-10T13:36:05Z</time>
      </trkpt>
      <trkpt lat="43.67469" lon="4.62038">
        <ele>6</ele>
        <time>2013-05-10T13:36:16Z</time>
      </trkpt>
      <trkpt lat="43.67463" lon="4.62048">
        <ele>6</ele>
        <time>2013-05-10T13:36:26Z</time>
      </trkpt>
      <trkpt lat="43.67458" lon="4.62057">
        <ele>6</ele>
        <time>2013-05-10T13:36:37Z</time>
      </trkpt>
      <trkpt lat="43.67453" lon="4.62066">
        <ele>6</ele>
        <time>2013-05-10T13:36:47Z</time>
      </trkpt>
      <trkpt lat="43.67447" lon="4.62077">
        <ele>6</ele>
        <time>2013-05-10T13:36:57Z</time>
      </trkpt>
      <trkpt lat="43.67442" lon="4.62087">
        <ele>6</ele>
        <time>2013-05-10T13:37:07Z</time>
      </trkpt>
      <trkpt lat="43.67436" lon="4.62093">
        <ele>6</ele>
        <time>2013-05-10T13:37:17Z</time>
      </trkpt>
      <trkpt lat="43.6743" lon="4.62105">
        <ele>6</ele>
        <time>2013-05-10T13:37:28Z</time>
      </trkpt>
      <trkpt lat="43.67425" lon="4.62112">
        <ele>5</ele>
        <time>2013-05-10T13:37:39Z</time>
      </trkpt>
      <trkpt lat="43.67422" lon="4.62123">
        <ele>5</ele>
        <time>2013-05-10T13:37:49Z</time>
      </trkpt>
      <trkpt lat="43.6742" lon="4.62135">
        <ele>5</ele>
        <time>2013-05-10T13:38:00Z</time>
      </trkpt>
      <trkpt lat="43.67421" lon="4.62144">
        <ele>6</ele>
        <time>2013-05-10T13:38:10Z</time>
      </trkpt>
      <trkpt lat="43.6742" lon="4.62148">
        <ele>6</ele>
        <time>2013-05-10T13:38:25Z</time>
      </trkpt>
      <trkpt lat="43.67416" lon="4.62148">
        <ele>6</ele>
        <time>2013-05-10T13:38:37Z</time>
      </trkpt>
      <trkpt lat="43.67409" lon="4.62158">
        <ele>6</ele>
        <time>2013-05-10T13:38:47Z</time>
      </trkpt>
      <trkpt lat="43.67405" lon="4.62158">
        <ele>6</ele>
        <time>2013-05-10T13:38:59Z</time>
      </trkpt>
      <trkpt lat="43.67398" lon="4.62152">
        <ele>6</ele>
        <time>2013-05-10T13:39:10Z</time>
      </trkpt>
      <trkpt lat="43.67395" lon="4.62141">
        <ele>3</ele>
        <time>2013-05-10T13:39:21Z</time>
      </trkpt>
      <trkpt lat="43.67394" lon="4.62137">
        <ele>3</ele>
        <time>2013-05-10T13:39:33Z</time>
      </trkpt>
      <trkpt lat="43.67395" lon="4.62132">
        <ele>3</ele>
        <time>2013-05-10T13:39:49Z</time>
      </trkpt>
      <trkpt lat="43.67395" lon="4.62132">
        <ele>3</ele>
        <time>2013-05-10T13:40:04Z</time>
      </trkpt>
      <trkpt lat="43.67393" lon="4.62129">
        <ele>5</ele>
        <time>2013-05-10T13:40:15Z</time>
      </trkpt>
      <trkpt lat="43.67389" lon="4.62128">
        <ele>5</ele>
        <time>2013-05-10T13:40:26Z</time>
      </trkpt>
      <trkpt lat="43.6739" lon="4.62131">
        <ele>5</ele>
        <time>2013-05-10T13:40:36Z</time>
      </trkpt>
      <trkpt lat="43.67394" lon="4.6214">
        <ele>6</ele>
        <time>2013-05-10T13:40:46Z</time>
      </trkpt>
      <trkpt lat="43.67388" lon="4.62148">
        <ele>7</ele>
        <time>2013-05-10T13:40:56Z</time>
      </trkpt>
      <trkpt lat="43.67378" lon="4.62154">
        <ele>7</ele>
        <time>2013-05-10T13:41:07Z</time>
      </trkpt>
      <trkpt lat="43.6737" lon="4.62154">
        <ele>7</ele>
        <time>2013-05-10T13:41:17Z</time>
      </trkpt>
      <trkpt lat="43.6736" lon="4.62154">
        <ele>7</ele>
        <time>2013-05-10T13:41:28Z</time>
      </trkpt>
      <trkpt lat="43.67352" lon="4.62158">
        <ele>7</ele>
        <time>2013-05-10T13:41:39Z</time>
      </trkpt>
      <trkpt lat="43.67345" lon="4.62163">
        <ele>7</ele>
        <time>2013-05-10T13:41:49Z</time>
      </trkpt>
      <trkpt lat="43.67338" lon="4.62168">
        <ele>7</ele>
        <time>2013-05-10T13:42:00Z</time>
      </trkpt>
      <trkpt lat="43.67333" lon="4.62174">
        <ele>7</ele>
        <time>2013-05-10T13:42:11Z</time>
      </trkpt>
      <trkpt lat="43.67327" lon="4.62178">
        <ele>7</ele>
        <time>2013-05-10T13:42:27Z</time>
      </trkpt>
      <trkpt lat="43.67328" lon="4.6218">
        <ele>7</ele>
        <time>2013-05-10T13:43:01Z</time>
      </trkpt>
      <trkpt lat="43.67327" lon="4.62179">
        <ele>7</ele>
        <time>2013-05-10T13:43:28Z</time>
      </trkpt>
    </trkseg>
  </trk>
</gpx>